<?xml version="1.0" encoding="UTF-8"?>
<gpx xmlns:xsi="http://www.w3.org/2001/XMLSchema-instance" xsi:schemaLocation="http://www.topografix.com/GPX/1/1 http://www.topografix.com/GPX/1/1/gpx.xsd" creator="StravaGPX" version="1.1" xmlns="http://www.topografix.com/GPX/1/1">
 <metadata>
  <time>2025-08-19T17:30:09Z</time>
 </metadata>
 <trk>
  <name>Jellyfish</name>
  <type>walking</type>
  <trkseg>
   <trkpt lat="53.4510870" lon="-6.1570570">
    <ele>10.6</ele>
    <time>2025-08-19T17:30:09Z</time>
   </trkpt>
   <trkpt lat="53.4511310" lon="-6.1570080">
    <ele>10.4</ele>
    <time>2025-08-19T17:30:14Z</time>
   </trkpt>
   <trkpt lat="53.4511960" lon="-6.1571030">
    <ele>9.9</ele>
    <time>2025-08-19T17:30:19Z</time>
   </trkpt>
   <trkpt lat="53.4512030" lon="-6.1571780">
    <ele>9.6</ele>
    <time>2025-08-19T17:30:24Z</time>
   </trkpt>
   <trkpt lat="53.4511520" lon="-6.1572450">
    <ele>9.5</ele>
    <time>2025-08-19T17:30:30Z</time>
   </trkpt>
   <trkpt lat="53.4510990" lon="-6.1572410">
    <ele>9.6</ele>
    <time>2025-08-19T17:30:40Z</time>
   </trkpt>
   <trkpt lat="53.4510500" lon="-6.1571550">
    <ele>9.9</ele>
    <time>2025-08-19T17:30:45Z</time>
   </trkpt>
   <trkpt lat="53.4511020" lon="-6.1571890">
    <ele>10.1</ele>
    <time>2025-08-19T17:30:57Z</time>
   </trkpt>
   <trkpt lat="53.4510650" lon="-6.1571290">
    <ele>10.1</ele>
    <time>2025-08-19T17:31:04Z</time>
   </trkpt>
   <trkpt lat="53.4509680" lon="-6.1570710">
    <ele>10.4</ele>
    <time>2025-08-19T17:31:09Z</time>
   </trkpt>
   <trkpt lat="53.4510090" lon="-6.1571270">
    <ele>10.7</ele>
    <time>2025-08-19T17:31:24Z</time>
   </trkpt>
   <trkpt lat="53.4510800" lon="-6.1571740">
    <ele>10.5</ele>
    <time>2025-08-19T17:31:29Z</time>
   </trkpt>
   <trkpt lat="53.4510870" lon="-6.1572770">
    <ele>10.2</ele>
    <time>2025-08-19T17:31:34Z</time>
   </trkpt>
   <trkpt lat="53.4510520" lon="-6.1573920">
    <ele>10.1</ele>
    <time>2025-08-19T17:31:40Z</time>
   </trkpt>
   <trkpt lat="53.4510240" lon="-6.1574870">
    <ele>10.0</ele>
    <time>2025-08-19T17:31:45Z</time>
   </trkpt>
   <trkpt lat="53.4510160" lon="-6.1576190">
    <ele>10.0</ele>
    <time>2025-08-19T17:31:50Z</time>
   </trkpt>
   <trkpt lat="53.4510140" lon="-6.1577610">
    <ele>9.9</ele>
    <time>2025-08-19T17:31:55Z</time>
   </trkpt>
   <trkpt lat="53.4510150" lon="-6.1579000">
    <ele>9.7</ele>
    <time>2025-08-19T17:32:01Z</time>
   </trkpt>
   <trkpt lat="53.4509890" lon="-6.1580300">
    <ele>9.6</ele>
    <time>2025-08-19T17:32:06Z</time>
   </trkpt>
   <trkpt lat="53.4509740" lon="-6.1581330">
    <ele>9.6</ele>
    <time>2025-08-19T17:32:11Z</time>
   </trkpt>
   <trkpt lat="53.4510030" lon="-6.1582510">
    <ele>9.5</ele>
    <time>2025-08-19T17:32:17Z</time>
   </trkpt>
   <trkpt lat="53.4509850" lon="-6.1583350">
    <ele>9.4</ele>
    <time>2025-08-19T17:32:22Z</time>
   </trkpt>
   <trkpt lat="53.4509390" lon="-6.1584040">
    <ele>9.5</ele>
    <time>2025-08-19T17:32:28Z</time>
   </trkpt>
   <trkpt lat="53.4509040" lon="-6.1584720">
    <ele>9.6</ele>
    <time>2025-08-19T17:32:36Z</time>
   </trkpt>
   <trkpt lat="53.4508420" lon="-6.1585270">
    <ele>9.9</ele>
    <time>2025-08-19T17:32:41Z</time>
   </trkpt>
   <trkpt lat="53.4507680" lon="-6.1585470">
    <ele>10.1</ele>
    <time>2025-08-19T17:32:46Z</time>
   </trkpt>
   <trkpt lat="53.4507080" lon="-6.1585830">
    <ele>10.5</ele>
    <time>2025-08-19T17:32:51Z</time>
   </trkpt>
   <trkpt lat="53.4506400" lon="-6.1585920">
    <ele>10.8</ele>
    <time>2025-08-19T17:32:57Z</time>
   </trkpt>
   <trkpt lat="53.4505880" lon="-6.1586350">
    <ele>11.1</ele>
    <time>2025-08-19T17:33:02Z</time>
   </trkpt>
   <trkpt lat="53.4505290" lon="-6.1586950">
    <ele>11.5</ele>
    <time>2025-08-19T17:33:07Z</time>
   </trkpt>
   <trkpt lat="53.4505020" lon="-6.1587880">
    <ele>11.7</ele>
    <time>2025-08-19T17:33:12Z</time>
   </trkpt>
   <trkpt lat="53.4504800" lon="-6.1589070">
    <ele>12.0</ele>
    <time>2025-08-19T17:33:17Z</time>
   </trkpt>
   <trkpt lat="53.4504070" lon="-6.1590100">
    <ele>12.3</ele>
    <time>2025-08-19T17:33:23Z</time>
   </trkpt>
   <trkpt lat="53.4503390" lon="-6.1590240">
    <ele>12.6</ele>
    <time>2025-08-19T17:33:29Z</time>
   </trkpt>
   <trkpt lat="53.4502760" lon="-6.1590510">
    <ele>12.8</ele>
    <time>2025-08-19T17:33:34Z</time>
   </trkpt>
   <trkpt lat="53.4502030" lon="-6.1591410">
    <ele>13.1</ele>
    <time>2025-08-19T17:33:39Z</time>
   </trkpt>
   <trkpt lat="53.4501760" lon="-6.1590770">
    <ele>13.3</ele>
    <time>2025-08-19T17:33:50Z</time>
   </trkpt>
   <trkpt lat="53.4501260" lon="-6.1589200">
    <ele>13.4</ele>
    <time>2025-08-19T17:33:56Z</time>
   </trkpt>
   <trkpt lat="53.4500600" lon="-6.1588420">
    <ele>13.6</ele>
    <time>2025-08-19T17:34:02Z</time>
   </trkpt>
   <trkpt lat="53.4500180" lon="-6.1587350">
    <ele>13.7</ele>
    <time>2025-08-19T17:34:07Z</time>
   </trkpt>
   <trkpt lat="53.4499850" lon="-6.1586820">
    <ele>13.9</ele>
    <time>2025-08-19T17:34:13Z</time>
   </trkpt>
   <trkpt lat="53.4499140" lon="-6.1586400">
    <ele>14.1</ele>
    <time>2025-08-19T17:34:18Z</time>
   </trkpt>
   <trkpt lat="53.4498420" lon="-6.1586370">
    <ele>14.3</ele>
    <time>2025-08-19T17:34:23Z</time>
   </trkpt>
   <trkpt lat="53.4497380" lon="-6.1586160">
    <ele>14.7</ele>
    <time>2025-08-19T17:34:29Z</time>
   </trkpt>
   <trkpt lat="53.4496420" lon="-6.1586050">
    <ele>15.0</ele>
    <time>2025-08-19T17:34:34Z</time>
   </trkpt>
   <trkpt lat="53.4495630" lon="-6.1586030">
    <ele>15.3</ele>
    <time>2025-08-19T17:34:40Z</time>
   </trkpt>
   <trkpt lat="53.4495410" lon="-6.1585310">
    <ele>15.7</ele>
    <time>2025-08-19T17:34:45Z</time>
   </trkpt>
   <trkpt lat="53.4495550" lon="-6.1584470">
    <ele>15.7</ele>
    <time>2025-08-19T17:34:51Z</time>
   </trkpt>
   <trkpt lat="53.4495310" lon="-6.1583800">
    <ele>15.8</ele>
    <time>2025-08-19T17:34:57Z</time>
   </trkpt>
   <trkpt lat="53.4494410" lon="-6.1584830">
    <ele>16.0</ele>
    <time>2025-08-19T17:35:02Z</time>
   </trkpt>
   <trkpt lat="53.4493710" lon="-6.1585140">
    <ele>16.2</ele>
    <time>2025-08-19T17:35:07Z</time>
   </trkpt>
   <trkpt lat="53.4493020" lon="-6.1584420">
    <ele>16.4</ele>
    <time>2025-08-19T17:35:13Z</time>
   </trkpt>
   <trkpt lat="53.4492420" lon="-6.1584280">
    <ele>16.6</ele>
    <time>2025-08-19T17:35:18Z</time>
   </trkpt>
   <trkpt lat="53.4491650" lon="-6.1584350">
    <ele>16.8</ele>
    <time>2025-08-19T17:35:24Z</time>
   </trkpt>
   <trkpt lat="53.4490880" lon="-6.1584460">
    <ele>17.0</ele>
    <time>2025-08-19T17:35:29Z</time>
   </trkpt>
   <trkpt lat="53.4490140" lon="-6.1584310">
    <ele>17.2</ele>
    <time>2025-08-19T17:35:34Z</time>
   </trkpt>
   <trkpt lat="53.4489380" lon="-6.1584240">
    <ele>17.4</ele>
    <time>2025-08-19T17:35:39Z</time>
   </trkpt>
   <trkpt lat="53.4488650" lon="-6.1584330">
    <ele>17.7</ele>
    <time>2025-08-19T17:35:44Z</time>
   </trkpt>
   <trkpt lat="53.4487780" lon="-6.1584480">
    <ele>17.9</ele>
    <time>2025-08-19T17:35:50Z</time>
   </trkpt>
   <trkpt lat="53.4486990" lon="-6.1584360">
    <ele>18.1</ele>
    <time>2025-08-19T17:35:56Z</time>
   </trkpt>
   <trkpt lat="53.4486200" lon="-6.1584430">
    <ele>18.3</ele>
    <time>2025-08-19T17:36:01Z</time>
   </trkpt>
   <trkpt lat="53.4485750" lon="-6.1584250">
    <ele>18.6</ele>
    <time>2025-08-19T17:36:16Z</time>
   </trkpt>
   <trkpt lat="53.4484960" lon="-6.1583840">
    <ele>18.7</ele>
    <time>2025-08-19T17:36:21Z</time>
   </trkpt>
   <trkpt lat="53.4483890" lon="-6.1584120">
    <ele>18.8</ele>
    <time>2025-08-19T17:36:27Z</time>
   </trkpt>
   <trkpt lat="53.4482980" lon="-6.1584200">
    <ele>19.0</ele>
    <time>2025-08-19T17:36:33Z</time>
   </trkpt>
   <trkpt lat="53.4482330" lon="-6.1584110">
    <ele>19.1</ele>
    <time>2025-08-19T17:36:38Z</time>
   </trkpt>
   <trkpt lat="53.4481650" lon="-6.1584430">
    <ele>19.3</ele>
    <time>2025-08-19T17:36:43Z</time>
   </trkpt>
   <trkpt lat="53.4480940" lon="-6.1584480">
    <ele>19.4</ele>
    <time>2025-08-19T17:36:49Z</time>
   </trkpt>
   <trkpt lat="53.4480190" lon="-6.1584670">
    <ele>19.5</ele>
    <time>2025-08-19T17:36:54Z</time>
   </trkpt>
   <trkpt lat="53.4479410" lon="-6.1584930">
    <ele>19.6</ele>
    <time>2025-08-19T17:37:00Z</time>
   </trkpt>
   <trkpt lat="53.4478770" lon="-6.1585230">
    <ele>19.8</ele>
    <time>2025-08-19T17:37:05Z</time>
   </trkpt>
   <trkpt lat="53.4477940" lon="-6.1585560">
    <ele>19.8</ele>
    <time>2025-08-19T17:37:11Z</time>
   </trkpt>
   <trkpt lat="53.4477150" lon="-6.1585670">
    <ele>19.9</ele>
    <time>2025-08-19T17:37:16Z</time>
   </trkpt>
   <trkpt lat="53.4476380" lon="-6.1585770">
    <ele>19.9</ele>
    <time>2025-08-19T17:37:21Z</time>
   </trkpt>
   <trkpt lat="53.4475560" lon="-6.1585510">
    <ele>20.0</ele>
    <time>2025-08-19T17:37:27Z</time>
   </trkpt>
   <trkpt lat="53.4474800" lon="-6.1585190">
    <ele>20.1</ele>
    <time>2025-08-19T17:37:32Z</time>
   </trkpt>
   <trkpt lat="53.4473820" lon="-6.1585560">
    <ele>20.1</ele>
    <time>2025-08-19T17:37:38Z</time>
   </trkpt>
   <trkpt lat="53.4473090" lon="-6.1585510">
    <ele>20.2</ele>
    <time>2025-08-19T17:37:43Z</time>
   </trkpt>
   <trkpt lat="53.4472240" lon="-6.1585660">
    <ele>20.2</ele>
    <time>2025-08-19T17:37:49Z</time>
   </trkpt>
   <trkpt lat="53.4471390" lon="-6.1585780">
    <ele>20.3</ele>
    <time>2025-08-19T17:37:54Z</time>
   </trkpt>
   <trkpt lat="53.4470600" lon="-6.1585590">
    <ele>20.3</ele>
    <time>2025-08-19T17:38:00Z</time>
   </trkpt>
   <trkpt lat="53.4469770" lon="-6.1585520">
    <ele>20.3</ele>
    <time>2025-08-19T17:38:05Z</time>
   </trkpt>
   <trkpt lat="53.4469020" lon="-6.1585190">
    <ele>20.4</ele>
    <time>2025-08-19T17:38:10Z</time>
   </trkpt>
   <trkpt lat="53.4468260" lon="-6.1585280">
    <ele>20.5</ele>
    <time>2025-08-19T17:38:16Z</time>
   </trkpt>
   <trkpt lat="53.4467440" lon="-6.1584830">
    <ele>20.7</ele>
    <time>2025-08-19T17:38:21Z</time>
   </trkpt>
   <trkpt lat="53.4466650" lon="-6.1584200">
    <ele>20.9</ele>
    <time>2025-08-19T17:38:27Z</time>
   </trkpt>
   <trkpt lat="53.4465960" lon="-6.1583580">
    <ele>21.2</ele>
    <time>2025-08-19T17:38:32Z</time>
   </trkpt>
   <trkpt lat="53.4465290" lon="-6.1582910">
    <ele>21.5</ele>
    <time>2025-08-19T17:38:38Z</time>
   </trkpt>
   <trkpt lat="53.4464700" lon="-6.1582000">
    <ele>21.7</ele>
    <time>2025-08-19T17:38:43Z</time>
   </trkpt>
   <trkpt lat="53.4464110" lon="-6.1581240">
    <ele>21.8</ele>
    <time>2025-08-19T17:38:48Z</time>
   </trkpt>
   <trkpt lat="53.4463490" lon="-6.1580830">
    <ele>22.0</ele>
    <time>2025-08-19T17:38:53Z</time>
   </trkpt>
   <trkpt lat="53.4462680" lon="-6.1580570">
    <ele>22.2</ele>
    <time>2025-08-19T17:38:59Z</time>
   </trkpt>
   <trkpt lat="53.4461920" lon="-6.1580600">
    <ele>22.6</ele>
    <time>2025-08-19T17:39:04Z</time>
   </trkpt>
   <trkpt lat="53.4461380" lon="-6.1581050">
    <ele>23.2</ele>
    <time>2025-08-19T17:39:10Z</time>
   </trkpt>
   <trkpt lat="53.4460870" lon="-6.1581180">
    <ele>23.8</ele>
    <time>2025-08-19T17:39:15Z</time>
   </trkpt>
   <trkpt lat="53.4460280" lon="-6.1581310">
    <ele>24.3</ele>
    <time>2025-08-19T17:39:20Z</time>
   </trkpt>
   <trkpt lat="53.4459570" lon="-6.1581730">
    <ele>25.0</ele>
    <time>2025-08-19T17:39:26Z</time>
   </trkpt>
   <trkpt lat="53.4458990" lon="-6.1581880">
    <ele>25.8</ele>
    <time>2025-08-19T17:39:31Z</time>
   </trkpt>
   <trkpt lat="53.4458520" lon="-6.1582110">
    <ele>26.4</ele>
    <time>2025-08-19T17:39:36Z</time>
   </trkpt>
   <trkpt lat="53.4458070" lon="-6.1582330">
    <ele>27.0</ele>
    <time>2025-08-19T17:39:41Z</time>
   </trkpt>
   <trkpt lat="53.4457640" lon="-6.1582580">
    <ele>27.5</ele>
    <time>2025-08-19T17:39:47Z</time>
   </trkpt>
   <trkpt lat="53.4456820" lon="-6.1582580">
    <ele>28.0</ele>
    <time>2025-08-19T17:39:52Z</time>
   </trkpt>
   <trkpt lat="53.4456010" lon="-6.1582350">
    <ele>28.5</ele>
    <time>2025-08-19T17:39:57Z</time>
   </trkpt>
   <trkpt lat="53.4455130" lon="-6.1581950">
    <ele>29.0</ele>
    <time>2025-08-19T17:40:03Z</time>
   </trkpt>
   <trkpt lat="53.4454310" lon="-6.1581660">
    <ele>29.3</ele>
    <time>2025-08-19T17:40:08Z</time>
   </trkpt>
   <trkpt lat="53.4453540" lon="-6.1582180">
    <ele>29.8</ele>
    <time>2025-08-19T17:40:13Z</time>
   </trkpt>
   <trkpt lat="53.4452780" lon="-6.1582660">
    <ele>30.7</ele>
    <time>2025-08-19T17:40:19Z</time>
   </trkpt>
   <trkpt lat="53.4452020" lon="-6.1582870">
    <ele>31.3</ele>
    <time>2025-08-19T17:40:24Z</time>
   </trkpt>
   <trkpt lat="53.4451320" lon="-6.1582930">
    <ele>31.7</ele>
    <time>2025-08-19T17:40:29Z</time>
   </trkpt>
   <trkpt lat="53.4450560" lon="-6.1582590">
    <ele>32.2</ele>
    <time>2025-08-19T17:40:35Z</time>
   </trkpt>
   <trkpt lat="53.4449840" lon="-6.1582180">
    <ele>32.2</ele>
    <time>2025-08-19T17:40:40Z</time>
   </trkpt>
   <trkpt lat="53.4449110" lon="-6.1581860">
    <ele>32.1</ele>
    <time>2025-08-19T17:40:46Z</time>
   </trkpt>
   <trkpt lat="53.4448370" lon="-6.1581580">
    <ele>31.9</ele>
    <time>2025-08-19T17:40:52Z</time>
   </trkpt>
   <trkpt lat="53.4447570" lon="-6.1581010">
    <ele>31.5</ele>
    <time>2025-08-19T17:40:57Z</time>
   </trkpt>
   <trkpt lat="53.4446670" lon="-6.1580230">
    <ele>30.7</ele>
    <time>2025-08-19T17:41:02Z</time>
   </trkpt>
   <trkpt lat="53.4445830" lon="-6.1579590">
    <ele>30.0</ele>
    <time>2025-08-19T17:41:08Z</time>
   </trkpt>
   <trkpt lat="53.4445100" lon="-6.1579220">
    <ele>29.5</ele>
    <time>2025-08-19T17:41:13Z</time>
   </trkpt>
   <trkpt lat="53.4444110" lon="-6.1579220">
    <ele>29.0</ele>
    <time>2025-08-19T17:41:19Z</time>
   </trkpt>
   <trkpt lat="53.4443100" lon="-6.1579510">
    <ele>28.9</ele>
    <time>2025-08-19T17:41:24Z</time>
   </trkpt>
   <trkpt lat="53.4442350" lon="-6.1579980">
    <ele>28.9</ele>
    <time>2025-08-19T17:41:29Z</time>
   </trkpt>
   <trkpt lat="53.4441630" lon="-6.1580290">
    <ele>28.9</ele>
    <time>2025-08-19T17:41:35Z</time>
   </trkpt>
   <trkpt lat="53.4440790" lon="-6.1580740">
    <ele>28.9</ele>
    <time>2025-08-19T17:41:40Z</time>
   </trkpt>
   <trkpt lat="53.4439980" lon="-6.1581000">
    <ele>28.8</ele>
    <time>2025-08-19T17:41:45Z</time>
   </trkpt>
   <trkpt lat="53.4439270" lon="-6.1581210">
    <ele>28.6</ele>
    <time>2025-08-19T17:41:51Z</time>
   </trkpt>
   <trkpt lat="53.4438610" lon="-6.1581040">
    <ele>28.3</ele>
    <time>2025-08-19T17:41:56Z</time>
   </trkpt>
   <trkpt lat="53.4437870" lon="-6.1580250">
    <ele>28.0</ele>
    <time>2025-08-19T17:42:02Z</time>
   </trkpt>
   <trkpt lat="53.4437090" lon="-6.1579670">
    <ele>27.5</ele>
    <time>2025-08-19T17:42:08Z</time>
   </trkpt>
   <trkpt lat="53.4436440" lon="-6.1579410">
    <ele>27.1</ele>
    <time>2025-08-19T17:42:13Z</time>
   </trkpt>
   <trkpt lat="53.4435880" lon="-6.1579160">
    <ele>26.8</ele>
    <time>2025-08-19T17:42:18Z</time>
   </trkpt>
   <trkpt lat="53.4435170" lon="-6.1578870">
    <ele>26.4</ele>
    <time>2025-08-19T17:42:24Z</time>
   </trkpt>
   <trkpt lat="53.4434600" lon="-6.1578590">
    <ele>26.1</ele>
    <time>2025-08-19T17:42:29Z</time>
   </trkpt>
   <trkpt lat="53.4433950" lon="-6.1578580">
    <ele>25.9</ele>
    <time>2025-08-19T17:42:34Z</time>
   </trkpt>
   <trkpt lat="53.4433400" lon="-6.1578260">
    <ele>25.6</ele>
    <time>2025-08-19T17:42:40Z</time>
   </trkpt>
   <trkpt lat="53.4432710" lon="-6.1578030">
    <ele>25.4</ele>
    <time>2025-08-19T17:42:45Z</time>
   </trkpt>
   <trkpt lat="53.4431850" lon="-6.1578040">
    <ele>25.2</ele>
    <time>2025-08-19T17:42:50Z</time>
   </trkpt>
   <trkpt lat="53.4431070" lon="-6.1577910">
    <ele>24.9</ele>
    <time>2025-08-19T17:42:56Z</time>
   </trkpt>
   <trkpt lat="53.4430510" lon="-6.1577740">
    <ele>24.7</ele>
    <time>2025-08-19T17:43:02Z</time>
   </trkpt>
   <trkpt lat="53.4430240" lon="-6.1576880">
    <ele>24.5</ele>
    <time>2025-08-19T17:43:07Z</time>
   </trkpt>
   <trkpt lat="53.4429850" lon="-6.1576050">
    <ele>24.5</ele>
    <time>2025-08-19T17:43:12Z</time>
   </trkpt>
   <trkpt lat="53.4429130" lon="-6.1575480">
    <ele>24.3</ele>
    <time>2025-08-19T17:43:17Z</time>
   </trkpt>
   <trkpt lat="53.4428400" lon="-6.1575020">
    <ele>24.1</ele>
    <time>2025-08-19T17:43:22Z</time>
   </trkpt>
   <trkpt lat="53.4427890" lon="-6.1573760">
    <ele>23.9</ele>
    <time>2025-08-19T17:43:28Z</time>
   </trkpt>
   <trkpt lat="53.4428030" lon="-6.1572200">
    <ele>23.6</ele>
    <time>2025-08-19T17:43:33Z</time>
   </trkpt>
   <trkpt lat="53.4428300" lon="-6.1570980">
    <ele>23.2</ele>
    <time>2025-08-19T17:43:39Z</time>
   </trkpt>
   <trkpt lat="53.4428430" lon="-6.1569280">
    <ele>22.8</ele>
    <time>2025-08-19T17:43:44Z</time>
   </trkpt>
   <trkpt lat="53.4428810" lon="-6.1567820">
    <ele>22.4</ele>
    <time>2025-08-19T17:43:49Z</time>
   </trkpt>
   <trkpt lat="53.4429200" lon="-6.1566460">
    <ele>22.2</ele>
    <time>2025-08-19T17:43:55Z</time>
   </trkpt>
   <trkpt lat="53.4429640" lon="-6.1565410">
    <ele>22.1</ele>
    <time>2025-08-19T17:44:00Z</time>
   </trkpt>
   <trkpt lat="53.4429970" lon="-6.1564220">
    <ele>22.2</ele>
    <time>2025-08-19T17:44:06Z</time>
   </trkpt>
   <trkpt lat="53.4429600" lon="-6.1563370">
    <ele>22.2</ele>
    <time>2025-08-19T17:44:11Z</time>
   </trkpt>
   <trkpt lat="53.4429860" lon="-6.1562720">
    <ele>22.3</ele>
    <time>2025-08-19T17:44:16Z</time>
   </trkpt>
   <trkpt lat="53.4429370" lon="-6.1562210">
    <ele>22.4</ele>
    <time>2025-08-19T17:44:33Z</time>
   </trkpt>
   <trkpt lat="53.4428400" lon="-6.1561460">
    <ele>22.3</ele>
    <time>2025-08-19T17:44:38Z</time>
   </trkpt>
   <trkpt lat="53.4427820" lon="-6.1561270">
    <ele>22.2</ele>
    <time>2025-08-19T17:44:43Z</time>
   </trkpt>
   <trkpt lat="53.4427210" lon="-6.1560740">
    <ele>22.1</ele>
    <time>2025-08-19T17:44:48Z</time>
   </trkpt>
   <trkpt lat="53.4426500" lon="-6.1559720">
    <ele>22.0</ele>
    <time>2025-08-19T17:44:54Z</time>
   </trkpt>
   <trkpt lat="53.4425800" lon="-6.1558620">
    <ele>22.0</ele>
    <time>2025-08-19T17:44:59Z</time>
   </trkpt>
   <trkpt lat="53.4425200" lon="-6.1557710">
    <ele>22.1</ele>
    <time>2025-08-19T17:45:05Z</time>
   </trkpt>
   <trkpt lat="53.4424800" lon="-6.1556820">
    <ele>22.2</ele>
    <time>2025-08-19T17:45:10Z</time>
   </trkpt>
   <trkpt lat="53.4424320" lon="-6.1555620">
    <ele>22.4</ele>
    <time>2025-08-19T17:45:15Z</time>
   </trkpt>
   <trkpt lat="53.4423870" lon="-6.1554570">
    <ele>22.6</ele>
    <time>2025-08-19T17:45:21Z</time>
   </trkpt>
   <trkpt lat="53.4423410" lon="-6.1553490">
    <ele>22.8</ele>
    <time>2025-08-19T17:45:26Z</time>
   </trkpt>
   <trkpt lat="53.4423240" lon="-6.1552380">
    <ele>23.1</ele>
    <time>2025-08-19T17:45:31Z</time>
   </trkpt>
   <trkpt lat="53.4422820" lon="-6.1551140">
    <ele>23.4</ele>
    <time>2025-08-19T17:45:37Z</time>
   </trkpt>
   <trkpt lat="53.4422460" lon="-6.1549850">
    <ele>23.6</ele>
    <time>2025-08-19T17:45:42Z</time>
   </trkpt>
   <trkpt lat="53.4422150" lon="-6.1548730">
    <ele>23.7</ele>
    <time>2025-08-19T17:45:47Z</time>
   </trkpt>
   <trkpt lat="53.4421910" lon="-6.1547990">
    <ele>23.9</ele>
    <time>2025-08-19T17:46:04Z</time>
   </trkpt>
   <trkpt lat="53.4421410" lon="-6.1545890">
    <ele>23.9</ele>
    <time>2025-08-19T17:46:10Z</time>
   </trkpt>
   <trkpt lat="53.4421070" lon="-6.1544360">
    <ele>23.9</ele>
    <time>2025-08-19T17:46:15Z</time>
   </trkpt>
   <trkpt lat="53.4420720" lon="-6.1542810">
    <ele>24.0</ele>
    <time>2025-08-19T17:46:21Z</time>
   </trkpt>
   <trkpt lat="53.4420430" lon="-6.1541550">
    <ele>24.0</ele>
    <time>2025-08-19T17:46:27Z</time>
   </trkpt>
   <trkpt lat="53.4420120" lon="-6.1540030">
    <ele>24.1</ele>
    <time>2025-08-19T17:46:32Z</time>
   </trkpt>
   <trkpt lat="53.4420000" lon="-6.1538370">
    <ele>24.1</ele>
    <time>2025-08-19T17:46:38Z</time>
   </trkpt>
   <trkpt lat="53.4419930" lon="-6.1537110">
    <ele>24.1</ele>
    <time>2025-08-19T17:46:43Z</time>
   </trkpt>
   <trkpt lat="53.4419880" lon="-6.1535630">
    <ele>24.1</ele>
    <time>2025-08-19T17:46:48Z</time>
   </trkpt>
   <trkpt lat="53.4419780" lon="-6.1534180">
    <ele>24.1</ele>
    <time>2025-08-19T17:46:54Z</time>
   </trkpt>
   <trkpt lat="53.4419640" lon="-6.1532660">
    <ele>24.1</ele>
    <time>2025-08-19T17:46:59Z</time>
   </trkpt>
   <trkpt lat="53.4419470" lon="-6.1531500">
    <ele>24.1</ele>
    <time>2025-08-19T17:47:04Z</time>
   </trkpt>
   <trkpt lat="53.4419420" lon="-6.1530240">
    <ele>24.1</ele>
    <time>2025-08-19T17:47:10Z</time>
   </trkpt>
   <trkpt lat="53.4419490" lon="-6.1528860">
    <ele>24.2</ele>
    <time>2025-08-19T17:47:15Z</time>
   </trkpt>
   <trkpt lat="53.4419470" lon="-6.1527460">
    <ele>24.2</ele>
    <time>2025-08-19T17:47:21Z</time>
   </trkpt>
   <trkpt lat="53.4419480" lon="-6.1526230">
    <ele>24.2</ele>
    <time>2025-08-19T17:47:26Z</time>
   </trkpt>
   <trkpt lat="53.4419500" lon="-6.1524920">
    <ele>24.3</ele>
    <time>2025-08-19T17:47:31Z</time>
   </trkpt>
   <trkpt lat="53.4419500" lon="-6.1523400">
    <ele>24.3</ele>
    <time>2025-08-19T17:47:37Z</time>
   </trkpt>
   <trkpt lat="53.4419390" lon="-6.1522160">
    <ele>24.5</ele>
    <time>2025-08-19T17:47:42Z</time>
   </trkpt>
   <trkpt lat="53.4419340" lon="-6.1521020">
    <ele>24.6</ele>
    <time>2025-08-19T17:47:47Z</time>
   </trkpt>
   <trkpt lat="53.4419370" lon="-6.1519620">
    <ele>24.8</ele>
    <time>2025-08-19T17:47:53Z</time>
   </trkpt>
   <trkpt lat="53.4419330" lon="-6.1518480">
    <ele>24.9</ele>
    <time>2025-08-19T17:47:58Z</time>
   </trkpt>
   <trkpt lat="53.4419200" lon="-6.1517200">
    <ele>25.1</ele>
    <time>2025-08-19T17:48:03Z</time>
   </trkpt>
   <trkpt lat="53.4419220" lon="-6.1516450">
    <ele>25.4</ele>
    <time>2025-08-19T17:48:26Z</time>
   </trkpt>
   <trkpt lat="53.4419540" lon="-6.1515900">
    <ele>25.5</ele>
    <time>2025-08-19T17:50:36Z</time>
   </trkpt>
   <trkpt lat="53.4420230" lon="-6.1514760">
    <ele>25.5</ele>
    <time>2025-08-19T17:50:41Z</time>
   </trkpt>
   <trkpt lat="53.4420880" lon="-6.1514470">
    <ele>25.5</ele>
    <time>2025-08-19T17:50:46Z</time>
   </trkpt>
   <trkpt lat="53.4421430" lon="-6.1513590">
    <ele>25.6</ele>
    <time>2025-08-19T17:50:52Z</time>
   </trkpt>
   <trkpt lat="53.4421710" lon="-6.1512420">
    <ele>25.7</ele>
    <time>2025-08-19T17:50:58Z</time>
   </trkpt>
   <trkpt lat="53.4421730" lon="-6.1511570">
    <ele>25.8</ele>
    <time>2025-08-19T17:51:03Z</time>
   </trkpt>
   <trkpt lat="53.4422000" lon="-6.1510310">
    <ele>25.9</ele>
    <time>2025-08-19T17:51:09Z</time>
   </trkpt>
   <trkpt lat="53.4421910" lon="-6.1509150">
    <ele>25.9</ele>
    <time>2025-08-19T17:51:14Z</time>
   </trkpt>
   <trkpt lat="53.4421840" lon="-6.1507880">
    <ele>26.0</ele>
    <time>2025-08-19T17:51:19Z</time>
   </trkpt>
   <trkpt lat="53.4421540" lon="-6.1506500">
    <ele>26.2</ele>
    <time>2025-08-19T17:51:25Z</time>
   </trkpt>
   <trkpt lat="53.4421340" lon="-6.1505380">
    <ele>26.3</ele>
    <time>2025-08-19T17:51:30Z</time>
   </trkpt>
   <trkpt lat="53.4421400" lon="-6.1504500">
    <ele>26.4</ele>
    <time>2025-08-19T17:51:35Z</time>
   </trkpt>
   <trkpt lat="53.4421530" lon="-6.1503740">
    <ele>26.7</ele>
    <time>2025-08-19T17:52:01Z</time>
   </trkpt>
   <trkpt lat="53.4421360" lon="-6.1502320">
    <ele>26.8</ele>
    <time>2025-08-19T17:52:06Z</time>
   </trkpt>
   <trkpt lat="53.4421300" lon="-6.1501100">
    <ele>27.0</ele>
    <time>2025-08-19T17:52:11Z</time>
   </trkpt>
   <trkpt lat="53.4421280" lon="-6.1499620">
    <ele>27.3</ele>
    <time>2025-08-19T17:52:17Z</time>
   </trkpt>
   <trkpt lat="53.4421110" lon="-6.1498150">
    <ele>27.6</ele>
    <time>2025-08-19T17:52:22Z</time>
   </trkpt>
   <trkpt lat="53.4420930" lon="-6.1496870">
    <ele>27.8</ele>
    <time>2025-08-19T17:52:28Z</time>
   </trkpt>
   <trkpt lat="53.4420790" lon="-6.1495580">
    <ele>28.1</ele>
    <time>2025-08-19T17:52:33Z</time>
   </trkpt>
   <trkpt lat="53.4420890" lon="-6.1494080">
    <ele>28.5</ele>
    <time>2025-08-19T17:52:39Z</time>
   </trkpt>
   <trkpt lat="53.4420930" lon="-6.1492860">
    <ele>28.8</ele>
    <time>2025-08-19T17:52:44Z</time>
   </trkpt>
   <trkpt lat="53.4420970" lon="-6.1491550">
    <ele>29.1</ele>
    <time>2025-08-19T17:52:50Z</time>
   </trkpt>
   <trkpt lat="53.4420960" lon="-6.1490090">
    <ele>29.4</ele>
    <time>2025-08-19T17:52:55Z</time>
   </trkpt>
   <trkpt lat="53.4420960" lon="-6.1488810">
    <ele>29.5</ele>
    <time>2025-08-19T17:53:00Z</time>
   </trkpt>
   <trkpt lat="53.4420850" lon="-6.1487530">
    <ele>29.6</ele>
    <time>2025-08-19T17:53:06Z</time>
   </trkpt>
   <trkpt lat="53.4420680" lon="-6.1486220">
    <ele>29.6</ele>
    <time>2025-08-19T17:53:11Z</time>
   </trkpt>
   <trkpt lat="53.4420450" lon="-6.1485100">
    <ele>29.6</ele>
    <time>2025-08-19T17:53:16Z</time>
   </trkpt>
   <trkpt lat="53.4420270" lon="-6.1483680">
    <ele>29.6</ele>
    <time>2025-08-19T17:53:22Z</time>
   </trkpt>
   <trkpt lat="53.4420150" lon="-6.1482020">
    <ele>29.6</ele>
    <time>2025-08-19T17:53:28Z</time>
   </trkpt>
   <trkpt lat="53.4420350" lon="-6.1480590">
    <ele>29.8</ele>
    <time>2025-08-19T17:53:33Z</time>
   </trkpt>
   <trkpt lat="53.4420480" lon="-6.1479560">
    <ele>30.1</ele>
    <time>2025-08-19T17:53:38Z</time>
   </trkpt>
   <trkpt lat="53.4420440" lon="-6.1478160">
    <ele>30.4</ele>
    <time>2025-08-19T17:53:43Z</time>
   </trkpt>
   <trkpt lat="53.4420200" lon="-6.1476750">
    <ele>30.6</ele>
    <time>2025-08-19T17:53:49Z</time>
   </trkpt>
   <trkpt lat="53.4419930" lon="-6.1475510">
    <ele>30.9</ele>
    <time>2025-08-19T17:53:54Z</time>
   </trkpt>
   <trkpt lat="53.4419870" lon="-6.1474310">
    <ele>31.0</ele>
    <time>2025-08-19T17:53:59Z</time>
   </trkpt>
   <trkpt lat="53.4419850" lon="-6.1472950">
    <ele>31.2</ele>
    <time>2025-08-19T17:54:04Z</time>
   </trkpt>
   <trkpt lat="53.4419760" lon="-6.1471670">
    <ele>31.4</ele>
    <time>2025-08-19T17:54:10Z</time>
   </trkpt>
   <trkpt lat="53.4419830" lon="-6.1470330">
    <ele>31.6</ele>
    <time>2025-08-19T17:54:15Z</time>
   </trkpt>
   <trkpt lat="53.4419800" lon="-6.1469120">
    <ele>31.8</ele>
    <time>2025-08-19T17:54:20Z</time>
   </trkpt>
   <trkpt lat="53.4419760" lon="-6.1467800">
    <ele>32.0</ele>
    <time>2025-08-19T17:54:26Z</time>
   </trkpt>
   <trkpt lat="53.4419660" lon="-6.1466750">
    <ele>32.2</ele>
    <time>2025-08-19T17:54:31Z</time>
   </trkpt>
   <trkpt lat="53.4419650" lon="-6.1465370">
    <ele>32.4</ele>
    <time>2025-08-19T17:54:37Z</time>
   </trkpt>
   <trkpt lat="53.4419530" lon="-6.1464010">
    <ele>32.7</ele>
    <time>2025-08-19T17:54:42Z</time>
   </trkpt>
   <trkpt lat="53.4419450" lon="-6.1462760">
    <ele>33.1</ele>
    <time>2025-08-19T17:54:48Z</time>
   </trkpt>
   <trkpt lat="53.4419350" lon="-6.1461370">
    <ele>33.4</ele>
    <time>2025-08-19T17:54:53Z</time>
   </trkpt>
   <trkpt lat="53.4419400" lon="-6.1459870">
    <ele>33.9</ele>
    <time>2025-08-19T17:54:58Z</time>
   </trkpt>
   <trkpt lat="53.4419250" lon="-6.1458820">
    <ele>34.3</ele>
    <time>2025-08-19T17:55:04Z</time>
   </trkpt>
   <trkpt lat="53.4419280" lon="-6.1457410">
    <ele>34.7</ele>
    <time>2025-08-19T17:55:09Z</time>
   </trkpt>
   <trkpt lat="53.4419100" lon="-6.1456010">
    <ele>35.1</ele>
    <time>2025-08-19T17:55:14Z</time>
   </trkpt>
   <trkpt lat="53.4419050" lon="-6.1454890">
    <ele>35.5</ele>
    <time>2025-08-19T17:55:19Z</time>
   </trkpt>
   <trkpt lat="53.4418960" lon="-6.1453620">
    <ele>35.9</ele>
    <time>2025-08-19T17:55:25Z</time>
   </trkpt>
   <trkpt lat="53.4418710" lon="-6.1452270">
    <ele>36.3</ele>
    <time>2025-08-19T17:55:30Z</time>
   </trkpt>
   <trkpt lat="53.4418670" lon="-6.1451200">
    <ele>36.7</ele>
    <time>2025-08-19T17:55:35Z</time>
   </trkpt>
   <trkpt lat="53.4418720" lon="-6.1449840">
    <ele>37.1</ele>
    <time>2025-08-19T17:55:41Z</time>
   </trkpt>
   <trkpt lat="53.4418800" lon="-6.1448550">
    <ele>37.6</ele>
    <time>2025-08-19T17:55:46Z</time>
   </trkpt>
   <trkpt lat="53.4418920" lon="-6.1447290">
    <ele>38.1</ele>
    <time>2025-08-19T17:55:52Z</time>
   </trkpt>
   <trkpt lat="53.4418860" lon="-6.1445980">
    <ele>38.6</ele>
    <time>2025-08-19T17:55:57Z</time>
   </trkpt>
   <trkpt lat="53.4418770" lon="-6.1444680">
    <ele>39.0</ele>
    <time>2025-08-19T17:56:02Z</time>
   </trkpt>
   <trkpt lat="53.4418690" lon="-6.1443490">
    <ele>39.3</ele>
    <time>2025-08-19T17:56:08Z</time>
   </trkpt>
   <trkpt lat="53.4418470" lon="-6.1442200">
    <ele>39.5</ele>
    <time>2025-08-19T17:56:13Z</time>
   </trkpt>
   <trkpt lat="53.4418450" lon="-6.1440630">
    <ele>39.7</ele>
    <time>2025-08-19T17:56:19Z</time>
   </trkpt>
   <trkpt lat="53.4418560" lon="-6.1439400">
    <ele>39.9</ele>
    <time>2025-08-19T17:56:24Z</time>
   </trkpt>
   <trkpt lat="53.4418450" lon="-6.1437900">
    <ele>40.0</ele>
    <time>2025-08-19T17:56:30Z</time>
   </trkpt>
   <trkpt lat="53.4418360" lon="-6.1436480">
    <ele>40.1</ele>
    <time>2025-08-19T17:56:36Z</time>
   </trkpt>
   <trkpt lat="53.4418220" lon="-6.1435020">
    <ele>40.2</ele>
    <time>2025-08-19T17:56:42Z</time>
   </trkpt>
   <trkpt lat="53.4418030" lon="-6.1433670">
    <ele>40.3</ele>
    <time>2025-08-19T17:56:48Z</time>
   </trkpt>
   <trkpt lat="53.4418000" lon="-6.1432630">
    <ele>40.4</ele>
    <time>2025-08-19T17:56:53Z</time>
   </trkpt>
   <trkpt lat="53.4417910" lon="-6.1431600">
    <ele>40.5</ele>
    <time>2025-08-19T17:56:58Z</time>
   </trkpt>
   <trkpt lat="53.4417900" lon="-6.1430000">
    <ele>40.9</ele>
    <time>2025-08-19T17:57:04Z</time>
   </trkpt>
   <trkpt lat="53.4417850" lon="-6.1428480">
    <ele>41.4</ele>
    <time>2025-08-19T17:57:09Z</time>
   </trkpt>
   <trkpt lat="53.4417750" lon="-6.1427250">
    <ele>41.9</ele>
    <time>2025-08-19T17:57:15Z</time>
   </trkpt>
   <trkpt lat="53.4417730" lon="-6.1426380">
    <ele>42.3</ele>
    <time>2025-08-19T17:57:20Z</time>
   </trkpt>
   <trkpt lat="53.4417690" lon="-6.1424800">
    <ele>42.7</ele>
    <time>2025-08-19T17:57:25Z</time>
   </trkpt>
   <trkpt lat="53.4417660" lon="-6.1423670">
    <ele>43.1</ele>
    <time>2025-08-19T17:57:31Z</time>
   </trkpt>
   <trkpt lat="53.4417690" lon="-6.1422190">
    <ele>43.4</ele>
    <time>2025-08-19T17:57:36Z</time>
   </trkpt>
   <trkpt lat="53.4417730" lon="-6.1420840">
    <ele>43.8</ele>
    <time>2025-08-19T17:57:41Z</time>
   </trkpt>
   <trkpt lat="53.4417910" lon="-6.1419790">
    <ele>44.1</ele>
    <time>2025-08-19T17:57:47Z</time>
   </trkpt>
   <trkpt lat="53.4417980" lon="-6.1418470">
    <ele>44.5</ele>
    <time>2025-08-19T17:57:52Z</time>
   </trkpt>
   <trkpt lat="53.4417990" lon="-6.1417630">
    <ele>44.9</ele>
    <time>2025-08-19T17:58:10Z</time>
   </trkpt>
   <trkpt lat="53.4418080" lon="-6.1416050">
    <ele>45.1</ele>
    <time>2025-08-19T17:58:16Z</time>
   </trkpt>
   <trkpt lat="53.4418480" lon="-6.1414950">
    <ele>45.6</ele>
    <time>2025-08-19T17:58:21Z</time>
   </trkpt>
   <trkpt lat="53.4418940" lon="-6.1414130">
    <ele>46.2</ele>
    <time>2025-08-19T17:58:26Z</time>
   </trkpt>
   <trkpt lat="53.4419550" lon="-6.1413850">
    <ele>46.7</ele>
    <time>2025-08-19T17:58:32Z</time>
   </trkpt>
   <trkpt lat="53.4420110" lon="-6.1413210">
    <ele>47.2</ele>
    <time>2025-08-19T17:58:37Z</time>
   </trkpt>
   <trkpt lat="53.4420790" lon="-6.1413260">
    <ele>47.7</ele>
    <time>2025-08-19T17:58:42Z</time>
   </trkpt>
   <trkpt lat="53.4421410" lon="-6.1413240">
    <ele>48.0</ele>
    <time>2025-08-19T17:58:47Z</time>
   </trkpt>
   <trkpt lat="53.4421910" lon="-6.1413550">
    <ele>48.3</ele>
    <time>2025-08-19T17:58:52Z</time>
   </trkpt>
   <trkpt lat="53.4422480" lon="-6.1414230">
    <ele>48.7</ele>
    <time>2025-08-19T17:58:58Z</time>
   </trkpt>
   <trkpt lat="53.4423100" lon="-6.1414770">
    <ele>49.1</ele>
    <time>2025-08-19T17:59:03Z</time>
   </trkpt>
   <trkpt lat="53.4423920" lon="-6.1414730">
    <ele>49.6</ele>
    <time>2025-08-19T17:59:08Z</time>
   </trkpt>
   <trkpt lat="53.4424660" lon="-6.1414690">
    <ele>50.0</ele>
    <time>2025-08-19T17:59:14Z</time>
   </trkpt>
   <trkpt lat="53.4425330" lon="-6.1414670">
    <ele>50.3</ele>
    <time>2025-08-19T17:59:19Z</time>
   </trkpt>
   <trkpt lat="53.4425980" lon="-6.1414310">
    <ele>50.7</ele>
    <time>2025-08-19T17:59:24Z</time>
   </trkpt>
   <trkpt lat="53.4426660" lon="-6.1414070">
    <ele>51.1</ele>
    <time>2025-08-19T17:59:29Z</time>
   </trkpt>
   <trkpt lat="53.4427360" lon="-6.1413530">
    <ele>51.4</ele>
    <time>2025-08-19T17:59:35Z</time>
   </trkpt>
   <trkpt lat="53.4427980" lon="-6.1413400">
    <ele>51.7</ele>
    <time>2025-08-19T17:59:40Z</time>
   </trkpt>
   <trkpt lat="53.4428910" lon="-6.1414090">
    <ele>52.2</ele>
    <time>2025-08-19T17:59:46Z</time>
   </trkpt>
   <trkpt lat="53.4429580" lon="-6.1414010">
    <ele>52.7</ele>
    <time>2025-08-19T17:59:51Z</time>
   </trkpt>
   <trkpt lat="53.4430220" lon="-6.1413460">
    <ele>53.0</ele>
    <time>2025-08-19T17:59:57Z</time>
   </trkpt>
   <trkpt lat="53.4430520" lon="-6.1412350">
    <ele>53.2</ele>
    <time>2025-08-19T18:00:02Z</time>
   </trkpt>
   <trkpt lat="53.4430500" lon="-6.1411270">
    <ele>53.1</ele>
    <time>2025-08-19T18:00:07Z</time>
   </trkpt>
   <trkpt lat="53.4430970" lon="-6.1409700">
    <ele>53.0</ele>
    <time>2025-08-19T18:00:13Z</time>
   </trkpt>
   <trkpt lat="53.4430990" lon="-6.1408870">
    <ele>52.9</ele>
    <time>2025-08-19T18:00:18Z</time>
   </trkpt>
   <trkpt lat="53.4430820" lon="-6.1408000">
    <ele>52.8</ele>
    <time>2025-08-19T18:00:33Z</time>
   </trkpt>
   <trkpt lat="53.4430560" lon="-6.1406640">
    <ele>52.5</ele>
    <time>2025-08-19T18:00:38Z</time>
   </trkpt>
   <trkpt lat="53.4430090" lon="-6.1405430">
    <ele>52.2</ele>
    <time>2025-08-19T18:00:44Z</time>
   </trkpt>
   <trkpt lat="53.4429820" lon="-6.1404230">
    <ele>51.8</ele>
    <time>2025-08-19T18:00:49Z</time>
   </trkpt>
   <trkpt lat="53.4429740" lon="-6.1402960">
    <ele>51.6</ele>
    <time>2025-08-19T18:00:54Z</time>
   </trkpt>
   <trkpt lat="53.4429800" lon="-6.1402120">
    <ele>51.4</ele>
    <time>2025-08-19T18:01:02Z</time>
   </trkpt>
   <trkpt lat="53.4429580" lon="-6.1400750">
    <ele>51.2</ele>
    <time>2025-08-19T18:01:07Z</time>
   </trkpt>
   <trkpt lat="53.4429330" lon="-6.1399230">
    <ele>51.0</ele>
    <time>2025-08-19T18:01:12Z</time>
   </trkpt>
   <trkpt lat="53.4429390" lon="-6.1398350">
    <ele>50.6</ele>
    <time>2025-08-19T18:01:17Z</time>
   </trkpt>
   <trkpt lat="53.4429700" lon="-6.1396950">
    <ele>50.2</ele>
    <time>2025-08-19T18:01:23Z</time>
   </trkpt>
   <trkpt lat="53.4430080" lon="-6.1395970">
    <ele>49.8</ele>
    <time>2025-08-19T18:01:29Z</time>
   </trkpt>
   <trkpt lat="53.4430660" lon="-6.1394810">
    <ele>49.5</ele>
    <time>2025-08-19T18:01:35Z</time>
   </trkpt>
   <trkpt lat="53.4430900" lon="-6.1393740">
    <ele>49.0</ele>
    <time>2025-08-19T18:01:40Z</time>
   </trkpt>
   <trkpt lat="53.4430680" lon="-6.1392750">
    <ele>48.5</ele>
    <time>2025-08-19T18:01:46Z</time>
   </trkpt>
   <trkpt lat="53.4430290" lon="-6.1391400">
    <ele>48.0</ele>
    <time>2025-08-19T18:01:51Z</time>
   </trkpt>
   <trkpt lat="53.4429780" lon="-6.1390460">
    <ele>47.7</ele>
    <time>2025-08-19T18:01:56Z</time>
   </trkpt>
   <trkpt lat="53.4429530" lon="-6.1388920">
    <ele>47.4</ele>
    <time>2025-08-19T18:02:02Z</time>
   </trkpt>
   <trkpt lat="53.4429520" lon="-6.1387420">
    <ele>47.1</ele>
    <time>2025-08-19T18:02:07Z</time>
   </trkpt>
   <trkpt lat="53.4429640" lon="-6.1385750">
    <ele>46.7</ele>
    <time>2025-08-19T18:02:13Z</time>
   </trkpt>
   <trkpt lat="53.4429430" lon="-6.1384400">
    <ele>46.3</ele>
    <time>2025-08-19T18:02:18Z</time>
   </trkpt>
   <trkpt lat="53.4429170" lon="-6.1383220">
    <ele>46.0</ele>
    <time>2025-08-19T18:02:24Z</time>
   </trkpt>
   <trkpt lat="53.4429030" lon="-6.1381950">
    <ele>45.8</ele>
    <time>2025-08-19T18:02:29Z</time>
   </trkpt>
   <trkpt lat="53.4428830" lon="-6.1380560">
    <ele>45.5</ele>
    <time>2025-08-19T18:02:34Z</time>
   </trkpt>
   <trkpt lat="53.4428490" lon="-6.1379630">
    <ele>45.1</ele>
    <time>2025-08-19T18:02:39Z</time>
   </trkpt>
   <trkpt lat="53.4428880" lon="-6.1378680">
    <ele>44.7</ele>
    <time>2025-08-19T18:02:45Z</time>
   </trkpt>
   <trkpt lat="53.4429400" lon="-6.1379010">
    <ele>44.5</ele>
    <time>2025-08-19T18:03:11Z</time>
   </trkpt>
   <trkpt lat="53.4430260" lon="-6.1379510">
    <ele>44.6</ele>
    <time>2025-08-19T18:03:16Z</time>
   </trkpt>
   <trkpt lat="53.4431180" lon="-6.1380000">
    <ele>44.7</ele>
    <time>2025-08-19T18:03:22Z</time>
   </trkpt>
   <trkpt lat="53.4431920" lon="-6.1380510">
    <ele>44.7</ele>
    <time>2025-08-19T18:03:27Z</time>
   </trkpt>
   <trkpt lat="53.4431910" lon="-6.1381490">
    <ele>44.8</ele>
    <time>2025-08-19T18:03:46Z</time>
   </trkpt>
   <trkpt lat="53.4431950" lon="-6.1383200">
    <ele>45.1</ele>
    <time>2025-08-19T18:03:51Z</time>
   </trkpt>
   <trkpt lat="53.4432170" lon="-6.1384810">
    <ele>45.5</ele>
    <time>2025-08-19T18:03:57Z</time>
   </trkpt>
   <trkpt lat="53.4432470" lon="-6.1385820">
    <ele>45.7</ele>
    <time>2025-08-19T18:04:02Z</time>
   </trkpt>
   <trkpt lat="53.4432770" lon="-6.1387140">
    <ele>45.9</ele>
    <time>2025-08-19T18:04:08Z</time>
   </trkpt>
   <trkpt lat="53.4433080" lon="-6.1388190">
    <ele>46.1</ele>
    <time>2025-08-19T18:04:13Z</time>
   </trkpt>
   <trkpt lat="53.4433440" lon="-6.1389350">
    <ele>46.2</ele>
    <time>2025-08-19T18:04:18Z</time>
   </trkpt>
   <trkpt lat="53.4433950" lon="-6.1390170">
    <ele>46.2</ele>
    <time>2025-08-19T18:04:23Z</time>
   </trkpt>
   <trkpt lat="53.4434550" lon="-6.1391080">
    <ele>46.2</ele>
    <time>2025-08-19T18:04:29Z</time>
   </trkpt>
   <trkpt lat="53.4435010" lon="-6.1392200">
    <ele>46.2</ele>
    <time>2025-08-19T18:04:34Z</time>
   </trkpt>
   <trkpt lat="53.4435520" lon="-6.1392960">
    <ele>46.2</ele>
    <time>2025-08-19T18:04:39Z</time>
   </trkpt>
   <trkpt lat="53.4436150" lon="-6.1393610">
    <ele>46.2</ele>
    <time>2025-08-19T18:04:44Z</time>
   </trkpt>
   <trkpt lat="53.4436820" lon="-6.1394190">
    <ele>46.1</ele>
    <time>2025-08-19T18:04:50Z</time>
   </trkpt>
   <trkpt lat="53.4437450" lon="-6.1394430">
    <ele>45.8</ele>
    <time>2025-08-19T18:04:55Z</time>
   </trkpt>
   <trkpt lat="53.4438170" lon="-6.1394480">
    <ele>45.3</ele>
    <time>2025-08-19T18:05:00Z</time>
   </trkpt>
   <trkpt lat="53.4439070" lon="-6.1394460">
    <ele>44.8</ele>
    <time>2025-08-19T18:05:06Z</time>
   </trkpt>
   <trkpt lat="53.4439760" lon="-6.1394370">
    <ele>44.2</ele>
    <time>2025-08-19T18:05:11Z</time>
   </trkpt>
   <trkpt lat="53.4440430" lon="-6.1394230">
    <ele>43.5</ele>
    <time>2025-08-19T18:05:16Z</time>
   </trkpt>
   <trkpt lat="53.4441270" lon="-6.1394060">
    <ele>42.4</ele>
    <time>2025-08-19T18:05:22Z</time>
   </trkpt>
   <trkpt lat="53.4441970" lon="-6.1394010">
    <ele>41.6</ele>
    <time>2025-08-19T18:05:27Z</time>
   </trkpt>
   <trkpt lat="53.4442580" lon="-6.1393900">
    <ele>40.9</ele>
    <time>2025-08-19T18:05:32Z</time>
   </trkpt>
   <trkpt lat="53.4443340" lon="-6.1393650">
    <ele>40.1</ele>
    <time>2025-08-19T18:05:38Z</time>
   </trkpt>
   <trkpt lat="53.4444110" lon="-6.1393440">
    <ele>39.3</ele>
    <time>2025-08-19T18:05:43Z</time>
   </trkpt>
   <trkpt lat="53.4444660" lon="-6.1392670">
    <ele>38.3</ele>
    <time>2025-08-19T18:05:48Z</time>
   </trkpt>
   <trkpt lat="53.4444870" lon="-6.1391610">
    <ele>37.3</ele>
    <time>2025-08-19T18:05:54Z</time>
   </trkpt>
   <trkpt lat="53.4444630" lon="-6.1390900">
    <ele>36.6</ele>
    <time>2025-08-19T18:06:01Z</time>
   </trkpt>
   <trkpt lat="53.4444360" lon="-6.1390160">
    <ele>36.4</ele>
    <time>2025-08-19T18:06:07Z</time>
   </trkpt>
   <trkpt lat="53.4444060" lon="-6.1389230">
    <ele>36.3</ele>
    <time>2025-08-19T18:06:12Z</time>
   </trkpt>
   <trkpt lat="53.4443730" lon="-6.1389770">
    <ele>36.6</ele>
    <time>2025-08-19T18:06:21Z</time>
   </trkpt>
   <trkpt lat="53.4443360" lon="-6.1388760">
    <ele>36.8</ele>
    <time>2025-08-19T18:06:26Z</time>
   </trkpt>
   <trkpt lat="53.4442850" lon="-6.1387600">
    <ele>36.8</ele>
    <time>2025-08-19T18:06:31Z</time>
   </trkpt>
   <trkpt lat="53.4442370" lon="-6.1386630">
    <ele>36.8</ele>
    <time>2025-08-19T18:06:36Z</time>
   </trkpt>
   <trkpt lat="53.4441920" lon="-6.1385580">
    <ele>36.8</ele>
    <time>2025-08-19T18:06:41Z</time>
   </trkpt>
   <trkpt lat="53.4441400" lon="-6.1384580">
    <ele>36.9</ele>
    <time>2025-08-19T18:06:47Z</time>
   </trkpt>
   <trkpt lat="53.4441270" lon="-6.1383170">
    <ele>36.7</ele>
    <time>2025-08-19T18:06:52Z</time>
   </trkpt>
   <trkpt lat="53.4441020" lon="-6.1381970">
    <ele>36.4</ele>
    <time>2025-08-19T18:06:57Z</time>
   </trkpt>
   <trkpt lat="53.4440700" lon="-6.1381100">
    <ele>36.2</ele>
    <time>2025-08-19T18:07:02Z</time>
   </trkpt>
   <trkpt lat="53.4440300" lon="-6.1380420">
    <ele>36.2</ele>
    <time>2025-08-19T18:07:07Z</time>
   </trkpt>
   <trkpt lat="53.4439700" lon="-6.1380030">
    <ele>36.4</ele>
    <time>2025-08-19T18:07:12Z</time>
   </trkpt>
   <trkpt lat="53.4439250" lon="-6.1379700">
    <ele>36.8</ele>
    <time>2025-08-19T18:07:18Z</time>
   </trkpt>
   <trkpt lat="53.4438600" lon="-6.1379430">
    <ele>37.4</ele>
    <time>2025-08-19T18:07:23Z</time>
   </trkpt>
   <trkpt lat="53.4438290" lon="-6.1378540">
    <ele>37.7</ele>
    <time>2025-08-19T18:07:28Z</time>
   </trkpt>
   <trkpt lat="53.4438250" lon="-6.1377750">
    <ele>37.7</ele>
    <time>2025-08-19T18:07:34Z</time>
   </trkpt>
   <trkpt lat="53.4438270" lon="-6.1376700">
    <ele>37.5</ele>
    <time>2025-08-19T18:07:39Z</time>
   </trkpt>
   <trkpt lat="53.4438630" lon="-6.1376100">
    <ele>37.0</ele>
    <time>2025-08-19T18:07:50Z</time>
   </trkpt>
   <trkpt lat="53.4438910" lon="-6.1374390">
    <ele>36.2</ele>
    <time>2025-08-19T18:07:55Z</time>
   </trkpt>
   <trkpt lat="53.4438630" lon="-6.1373080">
    <ele>35.5</ele>
    <time>2025-08-19T18:08:01Z</time>
   </trkpt>
   <trkpt lat="53.4438490" lon="-6.1371760">
    <ele>35.1</ele>
    <time>2025-08-19T18:08:06Z</time>
   </trkpt>
   <trkpt lat="53.4438540" lon="-6.1370340">
    <ele>34.6</ele>
    <time>2025-08-19T18:08:12Z</time>
   </trkpt>
   <trkpt lat="53.4438780" lon="-6.1369200">
    <ele>33.9</ele>
    <time>2025-08-19T18:08:17Z</time>
   </trkpt>
   <trkpt lat="53.4438920" lon="-6.1367820">
    <ele>33.1</ele>
    <time>2025-08-19T18:08:23Z</time>
   </trkpt>
   <trkpt lat="53.4439000" lon="-6.1366200">
    <ele>32.2</ele>
    <time>2025-08-19T18:08:29Z</time>
   </trkpt>
   <trkpt lat="53.4438970" lon="-6.1365010">
    <ele>31.5</ele>
    <time>2025-08-19T18:08:34Z</time>
   </trkpt>
   <trkpt lat="53.4438870" lon="-6.1363730">
    <ele>31.1</ele>
    <time>2025-08-19T18:08:39Z</time>
   </trkpt>
   <trkpt lat="53.4438820" lon="-6.1362400">
    <ele>30.6</ele>
    <time>2025-08-19T18:08:44Z</time>
   </trkpt>
   <trkpt lat="53.4438760" lon="-6.1361160">
    <ele>30.3</ele>
    <time>2025-08-19T18:08:50Z</time>
   </trkpt>
   <trkpt lat="53.4438890" lon="-6.1359800">
    <ele>29.9</ele>
    <time>2025-08-19T18:08:56Z</time>
   </trkpt>
   <trkpt lat="53.4438900" lon="-6.1358390">
    <ele>29.4</ele>
    <time>2025-08-19T18:09:02Z</time>
   </trkpt>
   <trkpt lat="53.4438880" lon="-6.1356940">
    <ele>28.8</ele>
    <time>2025-08-19T18:09:07Z</time>
   </trkpt>
   <trkpt lat="53.4438930" lon="-6.1355510">
    <ele>28.4</ele>
    <time>2025-08-19T18:09:13Z</time>
   </trkpt>
   <trkpt lat="53.4439040" lon="-6.1353910">
    <ele>27.8</ele>
    <time>2025-08-19T18:09:19Z</time>
   </trkpt>
   <trkpt lat="53.4439140" lon="-6.1352520">
    <ele>27.0</ele>
    <time>2025-08-19T18:09:25Z</time>
   </trkpt>
   <trkpt lat="53.4439320" lon="-6.1351290">
    <ele>26.4</ele>
    <time>2025-08-19T18:09:30Z</time>
   </trkpt>
   <trkpt lat="53.4439530" lon="-6.1349820">
    <ele>25.7</ele>
    <time>2025-08-19T18:09:36Z</time>
   </trkpt>
   <trkpt lat="53.4439470" lon="-6.1348320">
    <ele>25.0</ele>
    <time>2025-08-19T18:09:42Z</time>
   </trkpt>
   <trkpt lat="53.4439510" lon="-6.1347040">
    <ele>24.3</ele>
    <time>2025-08-19T18:09:47Z</time>
   </trkpt>
   <trkpt lat="53.4439630" lon="-6.1345750">
    <ele>23.7</ele>
    <time>2025-08-19T18:09:52Z</time>
   </trkpt>
   <trkpt lat="53.4439690" lon="-6.1344380">
    <ele>22.8</ele>
    <time>2025-08-19T18:09:58Z</time>
   </trkpt>
   <trkpt lat="53.4439670" lon="-6.1343060">
    <ele>22.2</ele>
    <time>2025-08-19T18:10:03Z</time>
   </trkpt>
   <trkpt lat="53.4439710" lon="-6.1341780">
    <ele>21.7</ele>
    <time>2025-08-19T18:10:08Z</time>
   </trkpt>
   <trkpt lat="53.4439730" lon="-6.1340390">
    <ele>21.0</ele>
    <time>2025-08-19T18:10:14Z</time>
   </trkpt>
   <trkpt lat="53.4439720" lon="-6.1339170">
    <ele>20.6</ele>
    <time>2025-08-19T18:10:19Z</time>
   </trkpt>
   <trkpt lat="53.4439670" lon="-6.1337480">
    <ele>20.3</ele>
    <time>2025-08-19T18:10:25Z</time>
   </trkpt>
   <trkpt lat="53.4439690" lon="-6.1336170">
    <ele>19.9</ele>
    <time>2025-08-19T18:10:31Z</time>
   </trkpt>
   <trkpt lat="53.4439770" lon="-6.1334850">
    <ele>19.5</ele>
    <time>2025-08-19T18:10:37Z</time>
   </trkpt>
   <trkpt lat="53.4439820" lon="-6.1333430">
    <ele>19.2</ele>
    <time>2025-08-19T18:10:42Z</time>
   </trkpt>
   <trkpt lat="53.4439730" lon="-6.1332070">
    <ele>18.9</ele>
    <time>2025-08-19T18:10:47Z</time>
   </trkpt>
   <trkpt lat="53.4439210" lon="-6.1330890">
    <ele>18.6</ele>
    <time>2025-08-19T18:10:53Z</time>
   </trkpt>
   <trkpt lat="53.4439340" lon="-6.1329720">
    <ele>18.4</ele>
    <time>2025-08-19T18:10:58Z</time>
   </trkpt>
   <trkpt lat="53.4439760" lon="-6.1328650">
    <ele>17.8</ele>
    <time>2025-08-19T18:11:03Z</time>
   </trkpt>
   <trkpt lat="53.4440240" lon="-6.1327750">
    <ele>17.1</ele>
    <time>2025-08-19T18:11:08Z</time>
   </trkpt>
   <trkpt lat="53.4440610" lon="-6.1326510">
    <ele>16.4</ele>
    <time>2025-08-19T18:11:14Z</time>
   </trkpt>
   <trkpt lat="53.4441220" lon="-6.1325760">
    <ele>15.6</ele>
    <time>2025-08-19T18:11:19Z</time>
   </trkpt>
   <trkpt lat="53.4441680" lon="-6.1325070">
    <ele>14.9</ele>
    <time>2025-08-19T18:11:24Z</time>
   </trkpt>
   <trkpt lat="53.4441790" lon="-6.1323550">
    <ele>14.3</ele>
    <time>2025-08-19T18:11:30Z</time>
   </trkpt>
   <trkpt lat="53.4441990" lon="-6.1322110">
    <ele>13.5</ele>
    <time>2025-08-19T18:11:36Z</time>
   </trkpt>
   <trkpt lat="53.4442110" lon="-6.1321010">
    <ele>13.0</ele>
    <time>2025-08-19T18:11:41Z</time>
   </trkpt>
   <trkpt lat="53.4441920" lon="-6.1320140">
    <ele>12.5</ele>
    <time>2025-08-19T18:11:46Z</time>
   </trkpt>
   <trkpt lat="53.4441910" lon="-6.1319340">
    <ele>12.1</ele>
    <time>2025-08-19T18:11:54Z</time>
   </trkpt>
   <trkpt lat="53.4441880" lon="-6.1318580">
    <ele>11.5</ele>
    <time>2025-08-19T18:12:23Z</time>
   </trkpt>
   <trkpt lat="53.4441920" lon="-6.1317780">
    <ele>11.4</ele>
    <time>2025-08-19T18:12:29Z</time>
   </trkpt>
   <trkpt lat="53.4442140" lon="-6.1317110">
    <ele>11.1</ele>
    <time>2025-08-19T18:12:36Z</time>
   </trkpt>
   <trkpt lat="53.4442170" lon="-6.1316310">
    <ele>10.9</ele>
    <time>2025-08-19T18:12:42Z</time>
   </trkpt>
   <trkpt lat="53.4442190" lon="-6.1315390">
    <ele>10.7</ele>
    <time>2025-08-19T18:12:47Z</time>
   </trkpt>
   <trkpt lat="53.4442070" lon="-6.1314420">
    <ele>10.6</ele>
    <time>2025-08-19T18:12:53Z</time>
   </trkpt>
   <trkpt lat="53.4441970" lon="-6.1313410">
    <ele>10.4</ele>
    <time>2025-08-19T18:12:58Z</time>
   </trkpt>
   <trkpt lat="53.4441910" lon="-6.1312330">
    <ele>10.4</ele>
    <time>2025-08-19T18:13:04Z</time>
   </trkpt>
   <trkpt lat="53.4442000" lon="-6.1311070">
    <ele>10.3</ele>
    <time>2025-08-19T18:13:09Z</time>
   </trkpt>
   <trkpt lat="53.4442130" lon="-6.1309810">
    <ele>10.1</ele>
    <time>2025-08-19T18:13:15Z</time>
   </trkpt>
   <trkpt lat="53.4442270" lon="-6.1308680">
    <ele>10.0</ele>
    <time>2025-08-19T18:13:20Z</time>
   </trkpt>
   <trkpt lat="53.4442230" lon="-6.1307400">
    <ele>9.8</ele>
    <time>2025-08-19T18:13:26Z</time>
   </trkpt>
   <trkpt lat="53.4442350" lon="-6.1306500">
    <ele>9.7</ele>
    <time>2025-08-19T18:13:32Z</time>
   </trkpt>
   <trkpt lat="53.4443100" lon="-6.1306320">
    <ele>9.5</ele>
    <time>2025-08-19T18:13:37Z</time>
   </trkpt>
   <trkpt lat="53.4443960" lon="-6.1306210">
    <ele>9.2</ele>
    <time>2025-08-19T18:13:43Z</time>
   </trkpt>
   <trkpt lat="53.4444700" lon="-6.1306040">
    <ele>8.9</ele>
    <time>2025-08-19T18:13:48Z</time>
   </trkpt>
   <trkpt lat="53.4445410" lon="-6.1305720">
    <ele>8.7</ele>
    <time>2025-08-19T18:13:53Z</time>
   </trkpt>
   <trkpt lat="53.4446230" lon="-6.1305400">
    <ele>8.5</ele>
    <time>2025-08-19T18:13:59Z</time>
   </trkpt>
   <trkpt lat="53.4446990" lon="-6.1305020">
    <ele>8.3</ele>
    <time>2025-08-19T18:14:05Z</time>
   </trkpt>
   <trkpt lat="53.4447630" lon="-6.1304700">
    <ele>8.0</ele>
    <time>2025-08-19T18:14:10Z</time>
   </trkpt>
   <trkpt lat="53.4448470" lon="-6.1304410">
    <ele>7.8</ele>
    <time>2025-08-19T18:14:15Z</time>
   </trkpt>
   <trkpt lat="53.4449280" lon="-6.1304590">
    <ele>7.6</ele>
    <time>2025-08-19T18:14:21Z</time>
   </trkpt>
   <trkpt lat="53.4450060" lon="-6.1304380">
    <ele>7.4</ele>
    <time>2025-08-19T18:14:27Z</time>
   </trkpt>
   <trkpt lat="53.4450790" lon="-6.1304350">
    <ele>7.2</ele>
    <time>2025-08-19T18:14:32Z</time>
   </trkpt>
   <trkpt lat="53.4451370" lon="-6.1304360">
    <ele>6.6</ele>
    <time>2025-08-19T18:15:00Z</time>
   </trkpt>
   <trkpt lat="53.4452730" lon="-6.1304540">
    <ele>6.3</ele>
    <time>2025-08-19T18:15:05Z</time>
   </trkpt>
   <trkpt lat="53.4453220" lon="-6.1304660">
    <ele>5.9</ele>
    <time>2025-08-19T18:15:15Z</time>
   </trkpt>
   <trkpt lat="53.4453520" lon="-6.1304050">
    <ele>5.5</ele>
    <time>2025-08-19T18:15:52Z</time>
   </trkpt>
   <trkpt lat="53.4454540" lon="-6.1304000">
    <ele>5.2</ele>
    <time>2025-08-19T18:15:58Z</time>
   </trkpt>
   <trkpt lat="53.4455640" lon="-6.1304430">
    <ele>4.9</ele>
    <time>2025-08-19T18:16:03Z</time>
   </trkpt>
   <trkpt lat="53.4455990" lon="-6.1303900">
    <ele>4.3</ele>
    <time>2025-08-19T18:16:18Z</time>
   </trkpt>
   <trkpt lat="53.4456750" lon="-6.1304340">
    <ele>4.1</ele>
    <time>2025-08-19T18:16:23Z</time>
   </trkpt>
   <trkpt lat="53.4457340" lon="-6.1305540">
    <ele>3.9</ele>
    <time>2025-08-19T18:16:29Z</time>
   </trkpt>
   <trkpt lat="53.4458000" lon="-6.1307010">
    <ele>3.9</ele>
    <time>2025-08-19T18:16:34Z</time>
   </trkpt>
   <trkpt lat="53.4458330" lon="-6.1308060">
    <ele>3.9</ele>
    <time>2025-08-19T18:16:39Z</time>
   </trkpt>
   <trkpt lat="53.4458860" lon="-6.1309110">
    <ele>3.9</ele>
    <time>2025-08-19T18:16:45Z</time>
   </trkpt>
   <trkpt lat="53.4459420" lon="-6.1310030">
    <ele>3.8</ele>
    <time>2025-08-19T18:16:50Z</time>
   </trkpt>
   <trkpt lat="53.4459900" lon="-6.1311380">
    <ele>3.8</ele>
    <time>2025-08-19T18:16:56Z</time>
   </trkpt>
   <trkpt lat="53.4460250" lon="-6.1312600">
    <ele>3.7</ele>
    <time>2025-08-19T18:17:01Z</time>
   </trkpt>
   <trkpt lat="53.4460410" lon="-6.1313760">
    <ele>3.6</ele>
    <time>2025-08-19T18:17:07Z</time>
   </trkpt>
   <trkpt lat="53.4460570" lon="-6.1314910">
    <ele>3.6</ele>
    <time>2025-08-19T18:17:12Z</time>
   </trkpt>
   <trkpt lat="53.4460850" lon="-6.1316460">
    <ele>3.5</ele>
    <time>2025-08-19T18:17:17Z</time>
   </trkpt>
   <trkpt lat="53.4461090" lon="-6.1317840">
    <ele>3.5</ele>
    <time>2025-08-19T18:17:22Z</time>
   </trkpt>
   <trkpt lat="53.4461190" lon="-6.1318970">
    <ele>3.4</ele>
    <time>2025-08-19T18:17:28Z</time>
   </trkpt>
   <trkpt lat="53.4461150" lon="-6.1320300">
    <ele>3.5</ele>
    <time>2025-08-19T18:17:33Z</time>
   </trkpt>
   <trkpt lat="53.4461240" lon="-6.1321700">
    <ele>3.5</ele>
    <time>2025-08-19T18:17:38Z</time>
   </trkpt>
   <trkpt lat="53.4461320" lon="-6.1323100">
    <ele>3.6</ele>
    <time>2025-08-19T18:17:43Z</time>
   </trkpt>
   <trkpt lat="53.4461310" lon="-6.1324380">
    <ele>3.6</ele>
    <time>2025-08-19T18:17:49Z</time>
   </trkpt>
   <trkpt lat="53.4461380" lon="-6.1325680">
    <ele>3.7</ele>
    <time>2025-08-19T18:17:54Z</time>
   </trkpt>
   <trkpt lat="53.4461320" lon="-6.1327190">
    <ele>3.8</ele>
    <time>2025-08-19T18:18:00Z</time>
   </trkpt>
   <trkpt lat="53.4461200" lon="-6.1328020">
    <ele>4.1</ele>
    <time>2025-08-19T18:18:12Z</time>
   </trkpt>
   <trkpt lat="53.4461160" lon="-6.1329720">
    <ele>4.3</ele>
    <time>2025-08-19T18:18:18Z</time>
   </trkpt>
   <trkpt lat="53.4461430" lon="-6.1331100">
    <ele>4.4</ele>
    <time>2025-08-19T18:18:23Z</time>
   </trkpt>
   <trkpt lat="53.4461620" lon="-6.1332450">
    <ele>4.5</ele>
    <time>2025-08-19T18:18:29Z</time>
   </trkpt>
   <trkpt lat="53.4461710" lon="-6.1333790">
    <ele>4.7</ele>
    <time>2025-08-19T18:18:34Z</time>
   </trkpt>
   <trkpt lat="53.4462080" lon="-6.1335150">
    <ele>5.0</ele>
    <time>2025-08-19T18:18:40Z</time>
   </trkpt>
   <trkpt lat="53.4462490" lon="-6.1336370">
    <ele>5.3</ele>
    <time>2025-08-19T18:18:45Z</time>
   </trkpt>
   <trkpt lat="53.4462910" lon="-6.1337240">
    <ele>5.6</ele>
    <time>2025-08-19T18:18:50Z</time>
   </trkpt>
   <trkpt lat="53.4463740" lon="-6.1337710">
    <ele>5.7</ele>
    <time>2025-08-19T18:18:56Z</time>
   </trkpt>
   <trkpt lat="53.4464400" lon="-6.1338320">
    <ele>5.7</ele>
    <time>2025-08-19T18:19:01Z</time>
   </trkpt>
   <trkpt lat="53.4465020" lon="-6.1338930">
    <ele>5.8</ele>
    <time>2025-08-19T18:19:07Z</time>
   </trkpt>
   <trkpt lat="53.4465620" lon="-6.1339780">
    <ele>6.0</ele>
    <time>2025-08-19T18:19:12Z</time>
   </trkpt>
   <trkpt lat="53.4466390" lon="-6.1340570">
    <ele>6.2</ele>
    <time>2025-08-19T18:19:17Z</time>
   </trkpt>
   <trkpt lat="53.4467130" lon="-6.1341270">
    <ele>6.4</ele>
    <time>2025-08-19T18:19:23Z</time>
   </trkpt>
   <trkpt lat="53.4467680" lon="-6.1341780">
    <ele>6.5</ele>
    <time>2025-08-19T18:19:28Z</time>
   </trkpt>
   <trkpt lat="53.4468450" lon="-6.1342490">
    <ele>6.6</ele>
    <time>2025-08-19T18:19:34Z</time>
   </trkpt>
   <trkpt lat="53.4469170" lon="-6.1343120">
    <ele>6.8</ele>
    <time>2025-08-19T18:19:39Z</time>
   </trkpt>
   <trkpt lat="53.4469900" lon="-6.1343660">
    <ele>6.8</ele>
    <time>2025-08-19T18:19:45Z</time>
   </trkpt>
   <trkpt lat="53.4470610" lon="-6.1344140">
    <ele>6.9</ele>
    <time>2025-08-19T18:19:50Z</time>
   </trkpt>
   <trkpt lat="53.4471480" lon="-6.1344620">
    <ele>6.9</ele>
    <time>2025-08-19T18:19:56Z</time>
   </trkpt>
   <trkpt lat="53.4472320" lon="-6.1345030">
    <ele>6.8</ele>
    <time>2025-08-19T18:20:02Z</time>
   </trkpt>
   <trkpt lat="53.4473100" lon="-6.1345520">
    <ele>6.8</ele>
    <time>2025-08-19T18:20:07Z</time>
   </trkpt>
   <trkpt lat="53.4473780" lon="-6.1345800">
    <ele>6.7</ele>
    <time>2025-08-19T18:20:12Z</time>
   </trkpt>
   <trkpt lat="53.4474150" lon="-6.1346440">
    <ele>6.7</ele>
    <time>2025-08-19T18:20:18Z</time>
   </trkpt>
   <trkpt lat="53.4474860" lon="-6.1346720">
    <ele>6.6</ele>
    <time>2025-08-19T18:20:23Z</time>
   </trkpt>
   <trkpt lat="53.4475640" lon="-6.1347270">
    <ele>6.5</ele>
    <time>2025-08-19T18:20:28Z</time>
   </trkpt>
   <trkpt lat="53.4476070" lon="-6.1347840">
    <ele>6.4</ele>
    <time>2025-08-19T18:20:33Z</time>
   </trkpt>
   <trkpt lat="53.4476660" lon="-6.1348600">
    <ele>6.4</ele>
    <time>2025-08-19T18:20:38Z</time>
   </trkpt>
   <trkpt lat="53.4477370" lon="-6.1349170">
    <ele>6.2</ele>
    <time>2025-08-19T18:20:44Z</time>
   </trkpt>
   <trkpt lat="53.4478130" lon="-6.1349980">
    <ele>6.0</ele>
    <time>2025-08-19T18:20:49Z</time>
   </trkpt>
   <trkpt lat="53.4478630" lon="-6.1350580">
    <ele>5.8</ele>
    <time>2025-08-19T18:20:54Z</time>
   </trkpt>
   <trkpt lat="53.4479040" lon="-6.1351380">
    <ele>5.7</ele>
    <time>2025-08-19T18:20:59Z</time>
   </trkpt>
   <trkpt lat="53.4479270" lon="-6.1352110">
    <ele>5.6</ele>
    <time>2025-08-19T18:21:19Z</time>
   </trkpt>
   <trkpt lat="53.4480170" lon="-6.1353470">
    <ele>5.7</ele>
    <time>2025-08-19T18:21:24Z</time>
   </trkpt>
   <trkpt lat="53.4481010" lon="-6.1353980">
    <ele>5.4</ele>
    <time>2025-08-19T18:21:30Z</time>
   </trkpt>
   <trkpt lat="53.4481690" lon="-6.1354350">
    <ele>5.0</ele>
    <time>2025-08-19T18:21:35Z</time>
   </trkpt>
   <trkpt lat="53.4482120" lon="-6.1355160">
    <ele>4.9</ele>
    <time>2025-08-19T18:21:40Z</time>
   </trkpt>
   <trkpt lat="53.4482780" lon="-6.1355320">
    <ele>4.7</ele>
    <time>2025-08-19T18:21:45Z</time>
   </trkpt>
   <trkpt lat="53.4483480" lon="-6.1355990">
    <ele>4.4</ele>
    <time>2025-08-19T18:21:50Z</time>
   </trkpt>
   <trkpt lat="53.4484360" lon="-6.1356420">
    <ele>4.2</ele>
    <time>2025-08-19T18:21:56Z</time>
   </trkpt>
   <trkpt lat="53.4485070" lon="-6.1356830">
    <ele>3.8</ele>
    <time>2025-08-19T18:22:01Z</time>
   </trkpt>
   <trkpt lat="53.4485660" lon="-6.1357100">
    <ele>3.6</ele>
    <time>2025-08-19T18:22:06Z</time>
   </trkpt>
   <trkpt lat="53.4486410" lon="-6.1357620">
    <ele>3.3</ele>
    <time>2025-08-19T18:22:12Z</time>
   </trkpt>
   <trkpt lat="53.4486940" lon="-6.1357700">
    <ele>2.9</ele>
    <time>2025-08-19T18:22:41Z</time>
   </trkpt>
   <trkpt lat="53.4487840" lon="-6.1357890">
    <ele>2.7</ele>
    <time>2025-08-19T18:22:46Z</time>
   </trkpt>
   <trkpt lat="53.4488560" lon="-6.1358030">
    <ele>2.4</ele>
    <time>2025-08-19T18:22:52Z</time>
   </trkpt>
   <trkpt lat="53.4489020" lon="-6.1359000">
    <ele>2.3</ele>
    <time>2025-08-19T18:22:57Z</time>
   </trkpt>
   <trkpt lat="53.4489630" lon="-6.1360160">
    <ele>2.1</ele>
    <time>2025-08-19T18:23:02Z</time>
   </trkpt>
   <trkpt lat="53.4490300" lon="-6.1360730">
    <ele>2.0</ele>
    <time>2025-08-19T18:23:07Z</time>
   </trkpt>
   <trkpt lat="53.4490760" lon="-6.1361410">
    <ele>1.8</ele>
    <time>2025-08-19T18:23:12Z</time>
   </trkpt>
   <trkpt lat="53.4491510" lon="-6.1362160">
    <ele>1.7</ele>
    <time>2025-08-19T18:23:18Z</time>
   </trkpt>
   <trkpt lat="53.4492210" lon="-6.1362590">
    <ele>1.5</ele>
    <time>2025-08-19T18:23:23Z</time>
   </trkpt>
   <trkpt lat="53.4492660" lon="-6.1363220">
    <ele>1.4</ele>
    <time>2025-08-19T18:23:28Z</time>
   </trkpt>
   <trkpt lat="53.4493520" lon="-6.1364030">
    <ele>1.3</ele>
    <time>2025-08-19T18:23:34Z</time>
   </trkpt>
   <trkpt lat="53.4494120" lon="-6.1364640">
    <ele>1.1</ele>
    <time>2025-08-19T18:23:39Z</time>
   </trkpt>
   <trkpt lat="53.4494740" lon="-6.1365620">
    <ele>1.0</ele>
    <time>2025-08-19T18:23:45Z</time>
   </trkpt>
   <trkpt lat="53.4495410" lon="-6.1365920">
    <ele>0.9</ele>
    <time>2025-08-19T18:23:50Z</time>
   </trkpt>
   <trkpt lat="53.4496200" lon="-6.1365970">
    <ele>0.8</ele>
    <time>2025-08-19T18:23:56Z</time>
   </trkpt>
   <trkpt lat="53.4497080" lon="-6.1365930">
    <ele>0.6</ele>
    <time>2025-08-19T18:24:01Z</time>
   </trkpt>
   <trkpt lat="53.4497740" lon="-6.1366000">
    <ele>0.4</ele>
    <time>2025-08-19T18:24:06Z</time>
   </trkpt>
   <trkpt lat="53.4498630" lon="-6.1365950">
    <ele>0.3</ele>
    <time>2025-08-19T18:24:12Z</time>
   </trkpt>
   <trkpt lat="53.4499340" lon="-6.1365860">
    <ele>0.2</ele>
    <time>2025-08-19T18:24:17Z</time>
   </trkpt>
   <trkpt lat="53.4499990" lon="-6.1365990">
    <ele>0.1</ele>
    <time>2025-08-19T18:24:22Z</time>
   </trkpt>
   <trkpt lat="53.4500880" lon="-6.1366250">
    <ele>0.0</ele>
    <time>2025-08-19T18:24:28Z</time>
   </trkpt>
   <trkpt lat="53.4501590" lon="-6.1366810">
    <ele>-0.1</ele>
    <time>2025-08-19T18:24:33Z</time>
   </trkpt>
   <trkpt lat="53.4502220" lon="-6.1367250">
    <ele>-0.1</ele>
    <time>2025-08-19T18:24:38Z</time>
   </trkpt>
   <trkpt lat="53.4502990" lon="-6.1368000">
    <ele>-0.1</ele>
    <time>2025-08-19T18:24:44Z</time>
   </trkpt>
   <trkpt lat="53.4503510" lon="-6.1368020">
    <ele>-0.1</ele>
    <time>2025-08-19T18:24:49Z</time>
   </trkpt>
   <trkpt lat="53.4503790" lon="-6.1368690">
    <ele>-0.1</ele>
    <time>2025-08-19T18:25:33Z</time>
   </trkpt>
   <trkpt lat="53.4504760" lon="-6.1369040">
    <ele>-0.1</ele>
    <time>2025-08-19T18:25:38Z</time>
   </trkpt>
   <trkpt lat="53.4505280" lon="-6.1369660">
    <ele>0.0</ele>
    <time>2025-08-19T18:25:43Z</time>
   </trkpt>
   <trkpt lat="53.4506140" lon="-6.1370040">
    <ele>0.0</ele>
    <time>2025-08-19T18:25:49Z</time>
   </trkpt>
   <trkpt lat="53.4506930" lon="-6.1370190">
    <ele>0.0</ele>
    <time>2025-08-19T18:25:54Z</time>
   </trkpt>
   <trkpt lat="53.4507410" lon="-6.1370430">
    <ele>0.0</ele>
    <time>2025-08-19T18:26:30Z</time>
   </trkpt>
   <trkpt lat="53.4508520" lon="-6.1370650">
    <ele>-0.1</ele>
    <time>2025-08-19T18:26:35Z</time>
   </trkpt>
   <trkpt lat="53.4509340" lon="-6.1371120">
    <ele>-0.1</ele>
    <time>2025-08-19T18:26:40Z</time>
   </trkpt>
   <trkpt lat="53.4509930" lon="-6.1371580">
    <ele>-0.1</ele>
    <time>2025-08-19T18:26:45Z</time>
   </trkpt>
   <trkpt lat="53.4510640" lon="-6.1372390">
    <ele>-0.1</ele>
    <time>2025-08-19T18:26:51Z</time>
   </trkpt>
   <trkpt lat="53.4511430" lon="-6.1372910">
    <ele>-0.1</ele>
    <time>2025-08-19T18:26:56Z</time>
   </trkpt>
   <trkpt lat="53.4512140" lon="-6.1373390">
    <ele>-0.1</ele>
    <time>2025-08-19T18:27:01Z</time>
   </trkpt>
   <trkpt lat="53.4512710" lon="-6.1374040">
    <ele>-0.1</ele>
    <time>2025-08-19T18:27:06Z</time>
   </trkpt>
   <trkpt lat="53.4513050" lon="-6.1375000">
    <ele>-0.1</ele>
    <time>2025-08-19T18:27:11Z</time>
   </trkpt>
   <trkpt lat="53.4513610" lon="-6.1376310">
    <ele>-0.1</ele>
    <time>2025-08-19T18:27:17Z</time>
   </trkpt>
   <trkpt lat="53.4514390" lon="-6.1377220">
    <ele>0.0</ele>
    <time>2025-08-19T18:27:23Z</time>
   </trkpt>
   <trkpt lat="53.4515010" lon="-6.1377420">
    <ele>0.0</ele>
    <time>2025-08-19T18:27:28Z</time>
   </trkpt>
   <trkpt lat="53.4515280" lon="-6.1378780">
    <ele>0.0</ele>
    <time>2025-08-19T18:27:34Z</time>
   </trkpt>
   <trkpt lat="53.4515670" lon="-6.1380100">
    <ele>0.0</ele>
    <time>2025-08-19T18:27:39Z</time>
   </trkpt>
   <trkpt lat="53.4516000" lon="-6.1381150">
    <ele>0.0</ele>
    <time>2025-08-19T18:27:44Z</time>
   </trkpt>
   <trkpt lat="53.4516320" lon="-6.1382540">
    <ele>0.0</ele>
    <time>2025-08-19T18:27:50Z</time>
   </trkpt>
   <trkpt lat="53.4516300" lon="-6.1384120">
    <ele>0.0</ele>
    <time>2025-08-19T18:27:56Z</time>
   </trkpt>
   <trkpt lat="53.4516010" lon="-6.1385140">
    <ele>0.0</ele>
    <time>2025-08-19T18:28:01Z</time>
   </trkpt>
   <trkpt lat="53.4515700" lon="-6.1386370">
    <ele>0.0</ele>
    <time>2025-08-19T18:28:07Z</time>
   </trkpt>
   <trkpt lat="53.4515390" lon="-6.1387860">
    <ele>0.0</ele>
    <time>2025-08-19T18:28:12Z</time>
   </trkpt>
   <trkpt lat="53.4515310" lon="-6.1388690">
    <ele>0.0</ele>
    <time>2025-08-19T18:28:17Z</time>
   </trkpt>
   <trkpt lat="53.4515250" lon="-6.1390120">
    <ele>0.0</ele>
    <time>2025-08-19T18:28:23Z</time>
   </trkpt>
   <trkpt lat="53.4515100" lon="-6.1391330">
    <ele>0.0</ele>
    <time>2025-08-19T18:28:28Z</time>
   </trkpt>
   <trkpt lat="53.4514990" lon="-6.1392450">
    <ele>0.0</ele>
    <time>2025-08-19T18:28:33Z</time>
   </trkpt>
   <trkpt lat="53.4514850" lon="-6.1393960">
    <ele>0.0</ele>
    <time>2025-08-19T18:28:39Z</time>
   </trkpt>
   <trkpt lat="53.4514720" lon="-6.1395190">
    <ele>-0.1</ele>
    <time>2025-08-19T18:28:44Z</time>
   </trkpt>
   <trkpt lat="53.4514430" lon="-6.1396210">
    <ele>-0.1</ele>
    <time>2025-08-19T18:28:50Z</time>
   </trkpt>
   <trkpt lat="53.4514030" lon="-6.1397490">
    <ele>-0.1</ele>
    <time>2025-08-19T18:28:55Z</time>
   </trkpt>
   <trkpt lat="53.4513490" lon="-6.1398180">
    <ele>-0.2</ele>
    <time>2025-08-19T18:29:00Z</time>
   </trkpt>
   <trkpt lat="53.4512810" lon="-6.1398140">
    <ele>-0.2</ele>
    <time>2025-08-19T18:29:05Z</time>
   </trkpt>
   <trkpt lat="53.4512010" lon="-6.1398130">
    <ele>-0.2</ele>
    <time>2025-08-19T18:29:10Z</time>
   </trkpt>
   <trkpt lat="53.4511430" lon="-6.1398410">
    <ele>-0.3</ele>
    <time>2025-08-19T18:29:15Z</time>
   </trkpt>
   <trkpt lat="53.4511520" lon="-6.1399890">
    <ele>-0.3</ele>
    <time>2025-08-19T18:29:21Z</time>
   </trkpt>
   <trkpt lat="53.4511700" lon="-6.1401160">
    <ele>-0.3</ele>
    <time>2025-08-19T18:29:26Z</time>
   </trkpt>
   <trkpt lat="53.4511850" lon="-6.1402300">
    <ele>-0.2</ele>
    <time>2025-08-19T18:29:31Z</time>
   </trkpt>
   <trkpt lat="53.4512070" lon="-6.1403610">
    <ele>-0.1</ele>
    <time>2025-08-19T18:29:37Z</time>
   </trkpt>
   <trkpt lat="53.4512170" lon="-6.1404750">
    <ele>-0.1</ele>
    <time>2025-08-19T18:29:42Z</time>
   </trkpt>
   <trkpt lat="53.4512450" lon="-6.1406000">
    <ele>0.1</ele>
    <time>2025-08-19T18:29:47Z</time>
   </trkpt>
   <trkpt lat="53.4512680" lon="-6.1407210">
    <ele>0.1</ele>
    <time>2025-08-19T18:29:53Z</time>
   </trkpt>
   <trkpt lat="53.4512730" lon="-6.1408430">
    <ele>0.2</ele>
    <time>2025-08-19T18:29:59Z</time>
   </trkpt>
   <trkpt lat="53.4512740" lon="-6.1409550">
    <ele>0.3</ele>
    <time>2025-08-19T18:30:04Z</time>
   </trkpt>
   <trkpt lat="53.4512790" lon="-6.1410970">
    <ele>0.3</ele>
    <time>2025-08-19T18:30:09Z</time>
   </trkpt>
   <trkpt lat="53.4512860" lon="-6.1412320">
    <ele>0.4</ele>
    <time>2025-08-19T18:30:15Z</time>
   </trkpt>
   <trkpt lat="53.4512980" lon="-6.1413490">
    <ele>0.5</ele>
    <time>2025-08-19T18:30:20Z</time>
   </trkpt>
   <trkpt lat="53.4513060" lon="-6.1414760">
    <ele>0.5</ele>
    <time>2025-08-19T18:30:25Z</time>
   </trkpt>
   <trkpt lat="53.4513150" lon="-6.1416070">
    <ele>0.6</ele>
    <time>2025-08-19T18:30:30Z</time>
   </trkpt>
   <trkpt lat="53.4513110" lon="-6.1417200">
    <ele>0.6</ele>
    <time>2025-08-19T18:30:35Z</time>
   </trkpt>
   <trkpt lat="53.4513080" lon="-6.1418770">
    <ele>0.6</ele>
    <time>2025-08-19T18:30:41Z</time>
   </trkpt>
   <trkpt lat="53.4513150" lon="-6.1420030">
    <ele>0.7</ele>
    <time>2025-08-19T18:30:46Z</time>
   </trkpt>
   <trkpt lat="53.4513150" lon="-6.1421500">
    <ele>0.7</ele>
    <time>2025-08-19T18:30:52Z</time>
   </trkpt>
   <trkpt lat="53.4513080" lon="-6.1422990">
    <ele>0.6</ele>
    <time>2025-08-19T18:30:57Z</time>
   </trkpt>
   <trkpt lat="53.4513060" lon="-6.1424110">
    <ele>0.6</ele>
    <time>2025-08-19T18:31:03Z</time>
   </trkpt>
   <trkpt lat="53.4513100" lon="-6.1425190">
    <ele>0.6</ele>
    <time>2025-08-19T18:31:08Z</time>
   </trkpt>
   <trkpt lat="53.4513110" lon="-6.1426560">
    <ele>0.6</ele>
    <time>2025-08-19T18:31:14Z</time>
   </trkpt>
   <trkpt lat="53.4513030" lon="-6.1427820">
    <ele>0.6</ele>
    <time>2025-08-19T18:31:19Z</time>
   </trkpt>
   <trkpt lat="53.4513030" lon="-6.1429000">
    <ele>0.6</ele>
    <time>2025-08-19T18:31:24Z</time>
   </trkpt>
   <trkpt lat="53.4513200" lon="-6.1430510">
    <ele>0.6</ele>
    <time>2025-08-19T18:31:30Z</time>
   </trkpt>
   <trkpt lat="53.4513450" lon="-6.1431570">
    <ele>0.6</ele>
    <time>2025-08-19T18:31:35Z</time>
   </trkpt>
   <trkpt lat="53.4513490" lon="-6.1432440">
    <ele>0.5</ele>
    <time>2025-08-19T18:31:41Z</time>
   </trkpt>
   <trkpt lat="53.4513310" lon="-6.1433910">
    <ele>0.6</ele>
    <time>2025-08-19T18:31:46Z</time>
   </trkpt>
   <trkpt lat="53.4513150" lon="-6.1435240">
    <ele>0.6</ele>
    <time>2025-08-19T18:31:51Z</time>
   </trkpt>
   <trkpt lat="53.4513150" lon="-6.1436480">
    <ele>0.6</ele>
    <time>2025-08-19T18:31:56Z</time>
   </trkpt>
   <trkpt lat="53.4513140" lon="-6.1438080">
    <ele>0.6</ele>
    <time>2025-08-19T18:32:01Z</time>
   </trkpt>
   <trkpt lat="53.4513120" lon="-6.1439360">
    <ele>0.6</ele>
    <time>2025-08-19T18:32:07Z</time>
   </trkpt>
   <trkpt lat="53.4513000" lon="-6.1440670">
    <ele>0.6</ele>
    <time>2025-08-19T18:32:12Z</time>
   </trkpt>
   <trkpt lat="53.4513590" lon="-6.1441590">
    <ele>0.5</ele>
    <time>2025-08-19T18:32:17Z</time>
   </trkpt>
   <trkpt lat="53.4514040" lon="-6.1440990">
    <ele>0.5</ele>
    <time>2025-08-19T18:32:23Z</time>
   </trkpt>
   <trkpt lat="53.4513620" lon="-6.1441300">
    <ele>0.4</ele>
    <time>2025-08-19T18:33:01Z</time>
   </trkpt>
   <trkpt lat="53.4513340" lon="-6.1441980">
    <ele>0.5</ele>
    <time>2025-08-19T18:33:33Z</time>
   </trkpt>
   <trkpt lat="53.4513090" lon="-6.1443510">
    <ele>0.5</ele>
    <time>2025-08-19T18:33:38Z</time>
   </trkpt>
   <trkpt lat="53.4513130" lon="-6.1444920">
    <ele>0.6</ele>
    <time>2025-08-19T18:33:44Z</time>
   </trkpt>
   <trkpt lat="53.4513100" lon="-6.1446220">
    <ele>0.6</ele>
    <time>2025-08-19T18:33:49Z</time>
   </trkpt>
   <trkpt lat="53.4513010" lon="-6.1447510">
    <ele>0.7</ele>
    <time>2025-08-19T18:33:54Z</time>
   </trkpt>
   <trkpt lat="53.4512940" lon="-6.1448770">
    <ele>0.8</ele>
    <time>2025-08-19T18:33:59Z</time>
   </trkpt>
   <trkpt lat="53.4513010" lon="-6.1450170">
    <ele>0.9</ele>
    <time>2025-08-19T18:34:05Z</time>
   </trkpt>
   <trkpt lat="53.4512920" lon="-6.1451480">
    <ele>1.0</ele>
    <time>2025-08-19T18:34:10Z</time>
   </trkpt>
   <trkpt lat="53.4512960" lon="-6.1452660">
    <ele>1.1</ele>
    <time>2025-08-19T18:34:15Z</time>
   </trkpt>
   <trkpt lat="53.4512830" lon="-6.1453890">
    <ele>1.2</ele>
    <time>2025-08-19T18:34:20Z</time>
   </trkpt>
   <trkpt lat="53.4512780" lon="-6.1455150">
    <ele>1.3</ele>
    <time>2025-08-19T18:34:26Z</time>
   </trkpt>
   <trkpt lat="53.4512630" lon="-6.1456250">
    <ele>1.5</ele>
    <time>2025-08-19T18:34:31Z</time>
   </trkpt>
   <trkpt lat="53.4512450" lon="-6.1457480">
    <ele>1.8</ele>
    <time>2025-08-19T18:34:36Z</time>
   </trkpt>
   <trkpt lat="53.4512350" lon="-6.1458710">
    <ele>2.0</ele>
    <time>2025-08-19T18:34:41Z</time>
   </trkpt>
   <trkpt lat="53.4512450" lon="-6.1460020">
    <ele>2.2</ele>
    <time>2025-08-19T18:34:46Z</time>
   </trkpt>
   <trkpt lat="53.4512610" lon="-6.1461180">
    <ele>2.3</ele>
    <time>2025-08-19T18:34:52Z</time>
   </trkpt>
   <trkpt lat="53.4512600" lon="-6.1462450">
    <ele>2.5</ele>
    <time>2025-08-19T18:34:57Z</time>
   </trkpt>
   <trkpt lat="53.4512850" lon="-6.1463680">
    <ele>2.5</ele>
    <time>2025-08-19T18:35:02Z</time>
   </trkpt>
   <trkpt lat="53.4512950" lon="-6.1465020">
    <ele>2.6</ele>
    <time>2025-08-19T18:35:08Z</time>
   </trkpt>
   <trkpt lat="53.4513070" lon="-6.1466150">
    <ele>2.6</ele>
    <time>2025-08-19T18:35:13Z</time>
   </trkpt>
   <trkpt lat="53.4513050" lon="-6.1467650">
    <ele>2.7</ele>
    <time>2025-08-19T18:35:18Z</time>
   </trkpt>
   <trkpt lat="53.4512970" lon="-6.1469040">
    <ele>2.8</ele>
    <time>2025-08-19T18:35:24Z</time>
   </trkpt>
   <trkpt lat="53.4513170" lon="-6.1470140">
    <ele>2.8</ele>
    <time>2025-08-19T18:35:29Z</time>
   </trkpt>
   <trkpt lat="53.4513300" lon="-6.1471480">
    <ele>2.8</ele>
    <time>2025-08-19T18:35:35Z</time>
   </trkpt>
   <trkpt lat="53.4513340" lon="-6.1472680">
    <ele>2.7</ele>
    <time>2025-08-19T18:35:40Z</time>
   </trkpt>
   <trkpt lat="53.4513370" lon="-6.1473860">
    <ele>2.7</ele>
    <time>2025-08-19T18:35:45Z</time>
   </trkpt>
   <trkpt lat="53.4513330" lon="-6.1475300">
    <ele>2.8</ele>
    <time>2025-08-19T18:35:51Z</time>
   </trkpt>
   <trkpt lat="53.4513380" lon="-6.1476670">
    <ele>2.8</ele>
    <time>2025-08-19T18:35:56Z</time>
   </trkpt>
   <trkpt lat="53.4513370" lon="-6.1477850">
    <ele>2.9</ele>
    <time>2025-08-19T18:36:01Z</time>
   </trkpt>
   <trkpt lat="53.4513340" lon="-6.1479210">
    <ele>3.0</ele>
    <time>2025-08-19T18:36:07Z</time>
   </trkpt>
   <trkpt lat="53.4513560" lon="-6.1480570">
    <ele>3.1</ele>
    <time>2025-08-19T18:36:12Z</time>
   </trkpt>
   <trkpt lat="53.4513680" lon="-6.1481800">
    <ele>3.1</ele>
    <time>2025-08-19T18:36:18Z</time>
   </trkpt>
   <trkpt lat="53.4513750" lon="-6.1482920">
    <ele>3.1</ele>
    <time>2025-08-19T18:36:23Z</time>
   </trkpt>
   <trkpt lat="53.4513900" lon="-6.1484150">
    <ele>3.1</ele>
    <time>2025-08-19T18:36:28Z</time>
   </trkpt>
   <trkpt lat="53.4513960" lon="-6.1485430">
    <ele>3.0</ele>
    <time>2025-08-19T18:36:33Z</time>
   </trkpt>
   <trkpt lat="53.4513930" lon="-6.1486800">
    <ele>3.0</ele>
    <time>2025-08-19T18:36:39Z</time>
   </trkpt>
   <trkpt lat="53.4514370" lon="-6.1487990">
    <ele>2.8</ele>
    <time>2025-08-19T18:36:45Z</time>
   </trkpt>
   <trkpt lat="53.4514740" lon="-6.1489160">
    <ele>2.5</ele>
    <time>2025-08-19T18:36:50Z</time>
   </trkpt>
   <trkpt lat="53.4514840" lon="-6.1490060">
    <ele>2.1</ele>
    <time>2025-08-19T18:37:07Z</time>
   </trkpt>
   <trkpt lat="53.4515200" lon="-6.1491910">
    <ele>2.0</ele>
    <time>2025-08-19T18:37:13Z</time>
   </trkpt>
   <trkpt lat="53.4515240" lon="-6.1492970">
    <ele>2.0</ele>
    <time>2025-08-19T18:37:18Z</time>
   </trkpt>
   <trkpt lat="53.4515450" lon="-6.1494150">
    <ele>2.1</ele>
    <time>2025-08-19T18:37:23Z</time>
   </trkpt>
   <trkpt lat="53.4515700" lon="-6.1495650">
    <ele>2.2</ele>
    <time>2025-08-19T18:37:29Z</time>
   </trkpt>
   <trkpt lat="53.4515770" lon="-6.1496430">
    <ele>2.4</ele>
    <time>2025-08-19T18:37:43Z</time>
   </trkpt>
   <trkpt lat="53.4516200" lon="-6.1498260">
    <ele>2.6</ele>
    <time>2025-08-19T18:37:48Z</time>
   </trkpt>
   <trkpt lat="53.4516350" lon="-6.1499580">
    <ele>2.8</ele>
    <time>2025-08-19T18:37:54Z</time>
   </trkpt>
   <trkpt lat="53.4516560" lon="-6.1500690">
    <ele>3.0</ele>
    <time>2025-08-19T18:37:59Z</time>
   </trkpt>
   <trkpt lat="53.4516960" lon="-6.1501780">
    <ele>3.2</ele>
    <time>2025-08-19T18:38:04Z</time>
   </trkpt>
   <trkpt lat="53.4517360" lon="-6.1503120">
    <ele>3.3</ele>
    <time>2025-08-19T18:38:09Z</time>
   </trkpt>
   <trkpt lat="53.4517710" lon="-6.1504370">
    <ele>3.4</ele>
    <time>2025-08-19T18:38:15Z</time>
   </trkpt>
   <trkpt lat="53.4518090" lon="-6.1505200">
    <ele>3.5</ele>
    <time>2025-08-19T18:38:20Z</time>
   </trkpt>
   <trkpt lat="53.4518680" lon="-6.1506280">
    <ele>3.5</ele>
    <time>2025-08-19T18:38:26Z</time>
   </trkpt>
   <trkpt lat="53.4519040" lon="-6.1506770">
    <ele>3.4</ele>
    <time>2025-08-19T18:38:43Z</time>
   </trkpt>
   <trkpt lat="53.4519360" lon="-6.1508270">
    <ele>3.5</ele>
    <time>2025-08-19T18:38:48Z</time>
   </trkpt>
   <trkpt lat="53.4519850" lon="-6.1509610">
    <ele>3.6</ele>
    <time>2025-08-19T18:38:53Z</time>
   </trkpt>
   <trkpt lat="53.4520060" lon="-6.1510320">
    <ele>3.7</ele>
    <time>2025-08-19T18:39:20Z</time>
   </trkpt>
   <trkpt lat="53.4520500" lon="-6.1511310">
    <ele>3.7</ele>
    <time>2025-08-19T18:39:25Z</time>
   </trkpt>
   <trkpt lat="53.4520860" lon="-6.1512250">
    <ele>3.7</ele>
    <time>2025-08-19T18:39:30Z</time>
   </trkpt>
   <trkpt lat="53.4520840" lon="-6.1513150">
    <ele>3.7</ele>
    <time>2025-08-19T18:39:35Z</time>
   </trkpt>
   <trkpt lat="53.4520480" lon="-6.1513720">
    <ele>3.9</ele>
    <time>2025-08-19T18:39:40Z</time>
   </trkpt>
   <trkpt lat="53.4521200" lon="-6.1514330">
    <ele>4.0</ele>
    <time>2025-08-19T18:39:46Z</time>
   </trkpt>
   <trkpt lat="53.4521900" lon="-6.1514900">
    <ele>3.8</ele>
    <time>2025-08-19T18:39:51Z</time>
   </trkpt>
   <trkpt lat="53.4522460" lon="-6.1515950">
    <ele>3.5</ele>
    <time>2025-08-19T18:39:56Z</time>
   </trkpt>
   <trkpt lat="53.4522400" lon="-6.1517250">
    <ele>3.4</ele>
    <time>2025-08-19T18:40:02Z</time>
   </trkpt>
   <trkpt lat="53.4522460" lon="-6.1518590">
    <ele>3.4</ele>
    <time>2025-08-19T18:40:07Z</time>
   </trkpt>
   <trkpt lat="53.4522490" lon="-6.1519830">
    <ele>3.3</ele>
    <time>2025-08-19T18:40:12Z</time>
   </trkpt>
   <trkpt lat="53.4522610" lon="-6.1520990">
    <ele>3.2</ele>
    <time>2025-08-19T18:40:18Z</time>
   </trkpt>
   <trkpt lat="53.4522130" lon="-6.1521780">
    <ele>3.2</ele>
    <time>2025-08-19T18:40:23Z</time>
   </trkpt>
   <trkpt lat="53.4521830" lon="-6.1523020">
    <ele>3.3</ele>
    <time>2025-08-19T18:40:28Z</time>
   </trkpt>
   <trkpt lat="53.4521380" lon="-6.1523840">
    <ele>3.4</ele>
    <time>2025-08-19T18:40:34Z</time>
   </trkpt>
   <trkpt lat="53.4520690" lon="-6.1523740">
    <ele>3.7</ele>
    <time>2025-08-19T18:40:39Z</time>
   </trkpt>
   <trkpt lat="53.4520080" lon="-6.1524180">
    <ele>4.0</ele>
    <time>2025-08-19T18:40:44Z</time>
   </trkpt>
   <trkpt lat="53.4519350" lon="-6.1523990">
    <ele>4.4</ele>
    <time>2025-08-19T18:40:49Z</time>
   </trkpt>
   <trkpt lat="53.4518550" lon="-6.1524260">
    <ele>4.8</ele>
    <time>2025-08-19T18:40:55Z</time>
   </trkpt>
   <trkpt lat="53.4517860" lon="-6.1524310">
    <ele>5.2</ele>
    <time>2025-08-19T18:41:00Z</time>
   </trkpt>
   <trkpt lat="53.4517090" lon="-6.1524610">
    <ele>5.5</ele>
    <time>2025-08-19T18:41:06Z</time>
   </trkpt>
   <trkpt lat="53.4516370" lon="-6.1524740">
    <ele>5.8</ele>
    <time>2025-08-19T18:41:11Z</time>
   </trkpt>
   <trkpt lat="53.4515680" lon="-6.1524800">
    <ele>6.1</ele>
    <time>2025-08-19T18:41:16Z</time>
   </trkpt>
   <trkpt lat="53.4514800" lon="-6.1524930">
    <ele>6.4</ele>
    <time>2025-08-19T18:41:22Z</time>
   </trkpt>
   <trkpt lat="53.4514280" lon="-6.1525960">
    <ele>6.6</ele>
    <time>2025-08-19T18:41:27Z</time>
   </trkpt>
   <trkpt lat="53.4513710" lon="-6.1526910">
    <ele>6.7</ele>
    <time>2025-08-19T18:41:33Z</time>
   </trkpt>
   <trkpt lat="53.4512930" lon="-6.1527450">
    <ele>6.9</ele>
    <time>2025-08-19T18:41:38Z</time>
   </trkpt>
   <trkpt lat="53.4512250" lon="-6.1527940">
    <ele>7.1</ele>
    <time>2025-08-19T18:41:43Z</time>
   </trkpt>
   <trkpt lat="53.4512020" lon="-6.1529040">
    <ele>7.3</ele>
    <time>2025-08-19T18:41:49Z</time>
   </trkpt>
   <trkpt lat="53.4511220" lon="-6.1528680">
    <ele>7.6</ele>
    <time>2025-08-19T18:41:56Z</time>
   </trkpt>
   <trkpt lat="53.4511410" lon="-6.1527870">
    <ele>7.7</ele>
    <time>2025-08-19T18:42:02Z</time>
   </trkpt>
   <trkpt lat="53.4511480" lon="-6.1529010">
    <ele>7.7</ele>
    <time>2025-08-19T18:42:07Z</time>
   </trkpt>
   <trkpt lat="53.4513540" lon="-6.1530070">
    <ele>6.9</ele>
    <time>2025-08-19T18:43:13Z</time>
   </trkpt>
   <trkpt lat="53.4513410" lon="-6.1530890">
    <ele>6.7</ele>
    <time>2025-08-19T18:45:07Z</time>
   </trkpt>
   <trkpt lat="53.4514060" lon="-6.1531160">
    <ele>6.6</ele>
    <time>2025-08-19T18:45:12Z</time>
   </trkpt>
   <trkpt lat="53.4513800" lon="-6.1530450">
    <ele>6.5</ele>
    <time>2025-08-19T18:45:51Z</time>
   </trkpt>
   <trkpt lat="53.4513050" lon="-6.1530830">
    <ele>6.6</ele>
    <time>2025-08-19T18:45:56Z</time>
   </trkpt>
   <trkpt lat="53.4513120" lon="-6.1530030">
    <ele>6.9</ele>
    <time>2025-08-19T18:46:17Z</time>
   </trkpt>
   <trkpt lat="53.4512690" lon="-6.1529400">
    <ele>7.1</ele>
    <time>2025-08-19T18:47:51Z</time>
   </trkpt>
   <trkpt lat="53.4511800" lon="-6.1530700">
    <ele>7.3</ele>
    <time>2025-08-19T18:47:58Z</time>
   </trkpt>
   <trkpt lat="53.4510340" lon="-6.1529830">
    <ele>7.8</ele>
    <time>2025-08-19T18:48:05Z</time>
   </trkpt>
   <trkpt lat="53.4509540" lon="-6.1529770">
    <ele>8.2</ele>
    <time>2025-08-19T18:48:10Z</time>
   </trkpt>
   <trkpt lat="53.4508940" lon="-6.1529530">
    <ele>8.6</ele>
    <time>2025-08-19T18:48:15Z</time>
   </trkpt>
   <trkpt lat="53.4508870" lon="-6.1530390">
    <ele>9.1</ele>
    <time>2025-08-19T18:48:26Z</time>
   </trkpt>
   <trkpt lat="53.4508810" lon="-6.1531760">
    <ele>9.3</ele>
    <time>2025-08-19T18:48:31Z</time>
   </trkpt>
   <trkpt lat="53.4508740" lon="-6.1533080">
    <ele>9.5</ele>
    <time>2025-08-19T18:48:37Z</time>
   </trkpt>
   <trkpt lat="53.4508680" lon="-6.1534240">
    <ele>9.6</ele>
    <time>2025-08-19T18:48:42Z</time>
   </trkpt>
   <trkpt lat="53.4508470" lon="-6.1535500">
    <ele>9.9</ele>
    <time>2025-08-19T18:48:48Z</time>
   </trkpt>
   <trkpt lat="53.4508100" lon="-6.1536800">
    <ele>10.2</ele>
    <time>2025-08-19T18:48:54Z</time>
   </trkpt>
   <trkpt lat="53.4507900" lon="-6.1538170">
    <ele>10.6</ele>
    <time>2025-08-19T18:48:59Z</time>
   </trkpt>
   <trkpt lat="53.4507540" lon="-6.1539360">
    <ele>10.8</ele>
    <time>2025-08-19T18:49:05Z</time>
   </trkpt>
   <trkpt lat="53.4507410" lon="-6.1540700">
    <ele>11.1</ele>
    <time>2025-08-19T18:49:10Z</time>
   </trkpt>
   <trkpt lat="53.4507280" lon="-6.1541800">
    <ele>11.3</ele>
    <time>2025-08-19T18:49:15Z</time>
   </trkpt>
   <trkpt lat="53.4507040" lon="-6.1543000">
    <ele>11.5</ele>
    <time>2025-08-19T18:49:20Z</time>
   </trkpt>
   <trkpt lat="53.4506840" lon="-6.1544200">
    <ele>11.6</ele>
    <time>2025-08-19T18:49:25Z</time>
   </trkpt>
   <trkpt lat="53.4506710" lon="-6.1545390">
    <ele>11.7</ele>
    <time>2025-08-19T18:49:30Z</time>
   </trkpt>
   <trkpt lat="53.4506540" lon="-6.1546830">
    <ele>11.8</ele>
    <time>2025-08-19T18:49:36Z</time>
   </trkpt>
   <trkpt lat="53.4506380" lon="-6.1547900">
    <ele>11.9</ele>
    <time>2025-08-19T18:49:42Z</time>
   </trkpt>
   <trkpt lat="53.4506010" lon="-6.1548970">
    <ele>12.1</ele>
    <time>2025-08-19T18:49:47Z</time>
   </trkpt>
   <trkpt lat="53.4505830" lon="-6.1550250">
    <ele>12.3</ele>
    <time>2025-08-19T18:49:52Z</time>
   </trkpt>
   <trkpt lat="53.4505630" lon="-6.1551330">
    <ele>12.4</ele>
    <time>2025-08-19T18:49:57Z</time>
   </trkpt>
   <trkpt lat="53.4505480" lon="-6.1552340">
    <ele>12.5</ele>
    <time>2025-08-19T18:50:02Z</time>
   </trkpt>
   <trkpt lat="53.4505300" lon="-6.1553510">
    <ele>12.7</ele>
    <time>2025-08-19T18:50:08Z</time>
   </trkpt>
   <trkpt lat="53.4505020" lon="-6.1554770">
    <ele>12.8</ele>
    <time>2025-08-19T18:50:13Z</time>
   </trkpt>
   <trkpt lat="53.4504880" lon="-6.1556020">
    <ele>13.0</ele>
    <time>2025-08-19T18:50:19Z</time>
   </trkpt>
   <trkpt lat="53.4504720" lon="-6.1557070">
    <ele>13.1</ele>
    <time>2025-08-19T18:50:24Z</time>
   </trkpt>
   <trkpt lat="53.4504500" lon="-6.1558240">
    <ele>13.2</ele>
    <time>2025-08-19T18:50:29Z</time>
   </trkpt>
   <trkpt lat="53.4504390" lon="-6.1559520">
    <ele>13.2</ele>
    <time>2025-08-19T18:50:35Z</time>
   </trkpt>
   <trkpt lat="53.4504260" lon="-6.1560680">
    <ele>13.3</ele>
    <time>2025-08-19T18:50:40Z</time>
   </trkpt>
   <trkpt lat="53.4504020" lon="-6.1561630">
    <ele>13.3</ele>
    <time>2025-08-19T18:50:45Z</time>
   </trkpt>
   <trkpt lat="53.4503790" lon="-6.1562910">
    <ele>13.4</ele>
    <time>2025-08-19T18:50:51Z</time>
   </trkpt>
   <trkpt lat="53.4503630" lon="-6.1564060">
    <ele>13.4</ele>
    <time>2025-08-19T18:50:56Z</time>
   </trkpt>
   <trkpt lat="53.4503330" lon="-6.1565290">
    <ele>13.5</ele>
    <time>2025-08-19T18:51:02Z</time>
   </trkpt>
   <trkpt lat="53.4503160" lon="-6.1566680">
    <ele>13.5</ele>
    <time>2025-08-19T18:51:07Z</time>
   </trkpt>
   <trkpt lat="53.4503030" lon="-6.1567740">
    <ele>13.5</ele>
    <time>2025-08-19T18:51:12Z</time>
   </trkpt>
   <trkpt lat="53.4503040" lon="-6.1568950">
    <ele>13.5</ele>
    <time>2025-08-19T18:51:18Z</time>
   </trkpt>
   <trkpt lat="53.4503160" lon="-6.1569770">
    <ele>13.4</ele>
    <time>2025-08-19T18:51:37Z</time>
   </trkpt>
   <trkpt lat="53.4502850" lon="-6.1571390">
    <ele>13.4</ele>
    <time>2025-08-19T18:51:42Z</time>
   </trkpt>
   <trkpt lat="53.4502330" lon="-6.1572280">
    <ele>13.4</ele>
    <time>2025-08-19T18:51:47Z</time>
   </trkpt>
   <trkpt lat="53.4501970" lon="-6.1573640">
    <ele>13.5</ele>
    <time>2025-08-19T18:51:53Z</time>
   </trkpt>
   <trkpt lat="53.4501820" lon="-6.1574890">
    <ele>13.5</ele>
    <time>2025-08-19T18:51:58Z</time>
   </trkpt>
   <trkpt lat="53.4501720" lon="-6.1575980">
    <ele>13.5</ele>
    <time>2025-08-19T18:52:03Z</time>
   </trkpt>
   <trkpt lat="53.4501490" lon="-6.1577440">
    <ele>13.5</ele>
    <time>2025-08-19T18:52:09Z</time>
   </trkpt>
   <trkpt lat="53.4501320" lon="-6.1578820">
    <ele>13.5</ele>
    <time>2025-08-19T18:52:14Z</time>
   </trkpt>
   <trkpt lat="53.4501400" lon="-6.1579660">
    <ele>13.5</ele>
    <time>2025-08-19T18:52:26Z</time>
   </trkpt>
   <trkpt lat="53.4501070" lon="-6.1580990">
    <ele>13.5</ele>
    <time>2025-08-19T18:52:31Z</time>
   </trkpt>
   <trkpt lat="53.4500770" lon="-6.1582190">
    <ele>13.6</ele>
    <time>2025-08-19T18:52:36Z</time>
   </trkpt>
   <trkpt lat="53.4500550" lon="-6.1583520">
    <ele>13.6</ele>
    <time>2025-08-19T18:52:42Z</time>
   </trkpt>
   <trkpt lat="53.4500470" lon="-6.1584910">
    <ele>13.7</ele>
    <time>2025-08-19T18:52:47Z</time>
   </trkpt>
   <trkpt lat="53.4500290" lon="-6.1586190">
    <ele>13.8</ele>
    <time>2025-08-19T18:52:53Z</time>
   </trkpt>
   <trkpt lat="53.4500190" lon="-6.1587500">
    <ele>13.9</ele>
    <time>2025-08-19T18:52:58Z</time>
   </trkpt>
   <trkpt lat="53.4500240" lon="-6.1588820">
    <ele>13.9</ele>
    <time>2025-08-19T18:53:03Z</time>
   </trkpt>
   <trkpt lat="53.4500640" lon="-6.1589660">
    <ele>13.9</ele>
    <time>2025-08-19T18:53:08Z</time>
   </trkpt>
   <trkpt lat="53.4501300" lon="-6.1589890">
    <ele>13.7</ele>
    <time>2025-08-19T18:53:14Z</time>
   </trkpt>
   <trkpt lat="53.4502020" lon="-6.1589560">
    <ele>13.6</ele>
    <time>2025-08-19T18:53:19Z</time>
   </trkpt>
   <trkpt lat="53.4502780" lon="-6.1589140">
    <ele>13.4</ele>
    <time>2025-08-19T18:53:24Z</time>
   </trkpt>
   <trkpt lat="53.4503080" lon="-6.1588050">
    <ele>13.2</ele>
    <time>2025-08-19T18:53:29Z</time>
   </trkpt>
   <trkpt lat="53.4503500" lon="-6.1586920">
    <ele>12.9</ele>
    <time>2025-08-19T18:53:35Z</time>
   </trkpt>
   <trkpt lat="53.4504210" lon="-6.1586620">
    <ele>12.7</ele>
    <time>2025-08-19T18:53:40Z</time>
   </trkpt>
   <trkpt lat="53.4505080" lon="-6.1586790">
    <ele>12.3</ele>
    <time>2025-08-19T18:53:46Z</time>
   </trkpt>
   <trkpt lat="53.4505880" lon="-6.1586890">
    <ele>12.0</ele>
    <time>2025-08-19T18:53:51Z</time>
   </trkpt>
   <trkpt lat="53.4506680" lon="-6.1586430">
    <ele>11.6</ele>
    <time>2025-08-19T18:53:57Z</time>
   </trkpt>
   <trkpt lat="53.4507480" lon="-6.1586230">
    <ele>11.2</ele>
    <time>2025-08-19T18:54:03Z</time>
   </trkpt>
   <trkpt lat="53.4507780" lon="-6.1585200">
    <ele>10.8</ele>
    <time>2025-08-19T18:54:09Z</time>
   </trkpt>
   <trkpt lat="53.4507950" lon="-6.1584160">
    <ele>10.5</ele>
    <time>2025-08-19T18:54:14Z</time>
   </trkpt>
   <trkpt lat="53.4508350" lon="-6.1583180">
    <ele>10.3</ele>
    <time>2025-08-19T18:54:20Z</time>
   </trkpt>
   <trkpt lat="53.4508400" lon="-6.1582070">
    <ele>10.2</ele>
    <time>2025-08-19T18:54:25Z</time>
   </trkpt>
   <trkpt lat="53.4508220" lon="-6.1580810">
    <ele>10.1</ele>
    <time>2025-08-19T18:54:31Z</time>
   </trkpt>
   <trkpt lat="53.4508930" lon="-6.1579650">
    <ele>10.1</ele>
    <time>2025-08-19T18:54:36Z</time>
   </trkpt>
   <trkpt lat="53.4509280" lon="-6.1578540">
    <ele>10.1</ele>
    <time>2025-08-19T18:54:41Z</time>
   </trkpt>
   <trkpt lat="53.4509100" lon="-6.1577150">
    <ele>10.2</ele>
    <time>2025-08-19T18:54:47Z</time>
   </trkpt>
   <trkpt lat="53.4509360" lon="-6.1575680">
    <ele>10.3</ele>
    <time>2025-08-19T18:54:52Z</time>
   </trkpt>
   <trkpt lat="53.4509420" lon="-6.1574490">
    <ele>10.4</ele>
    <time>2025-08-19T18:54:57Z</time>
   </trkpt>
   <trkpt lat="53.4509440" lon="-6.1573240">
    <ele>10.5</ele>
    <time>2025-08-19T18:55:03Z</time>
   </trkpt>
   <trkpt lat="53.4509560" lon="-6.1572120">
    <ele>10.6</ele>
    <time>2025-08-19T18:55:09Z</time>
   </trkpt>
   <trkpt lat="53.4509770" lon="-6.1570940">
    <ele>10.7</ele>
    <time>2025-08-19T18:55:14Z</time>
   </trkpt>
   <trkpt lat="53.4510200" lon="-6.1570180">
    <ele>10.7</ele>
    <time>2025-08-19T18:55:19Z</time>
   </trkpt>
  </trkseg>
 </trk>
</gpx>
